UA135 / N78060 7700 Squawk Report (20th of May, 2018)

Aircraft B764 Reg No. N78060 Age 16 years old
Model 767 Jet engines 2 First flight 21-01-02
Registered 01-10-10 Rollout 06-01-02 Delivered 01-02-02
Construction No. 29455 Line No. 0866 Series 424(ER)
ADSHEX AA93C9 Airline name United Airlines Owner N/A
Airfield based Houston-George Bush Intercontinental~TX~N First tracked 2011-04-01 15:13:07

Flight history for N78060

Route Flight No Date Playback
Charles De Gaulle (CDG) - Newark Liberty Intl (EWR) UA56 2018-06-25 16:07:00
Newark Liberty Intl (EWR) - Charles De Gaulle (CDG) UA57 2018-06-25 10:00:00
Luis Munoz Marin Intl (SJU) - Newark Liberty Intl (EWR) UA1173 2018-06-24 21:05:00
Newark Liberty Intl (EWR) - Luis Munoz Marin Intl (SJU) UA1523 2018-06-24 17:42:00
Heathrow (LHR) - Newark Liberty Intl (EWR) UA921 2018-06-24 12:20:00
Newark Liberty Intl (EWR) - Heathrow (LHR) UA934 2018-06-22 19:36:00
Luis Munoz Marin Intl (SJU) - Newark Liberty Intl (EWR) UA1173 2018-06-21 21:22:00
Newark Liberty Intl (EWR) - Luis Munoz Marin Intl (SJU) UA1523 2018-06-21 17:40:00
Daniel K. Inouye International (HNL) - Newark Liberty Intl (EWR) UA362 2018-06-21 10:21:00
Newark Liberty Intl (EWR) - Daniel K. Inouye International (HNL) UA363 2018-06-20 22:51:00
Ministro Pistarini (EZE) - Newark Liberty Intl (EWR) UA978 2018-06-20 12:28:00
Newark Liberty Intl (EWR) - Ministro Pistarini (EZE) UA979 2018-06-19 23:16:00
Heathrow (LHR) - Newark Liberty Intl (EWR) UA941 2018-06-19 03:12:00
Newark Liberty Intl (EWR) - Heathrow (LHR) UA16 2018-06-18 15:25:00
Heathrow (LHR) - Newark Liberty Intl (EWR) UA17 2018-06-17 18:54:00
Newark Liberty Intl (EWR) - Heathrow (LHR) UA14 2018-06-17 11:26:00
Luis Munoz Marin Intl (SJU) - Newark Liberty Intl (EWR) UA1173 2018-06-16 22:59:00
Newark Liberty Intl (EWR) - Luis Munoz Marin Intl (SJU) UA1523 2018-06-16 15:22:00
Eleftherios Venizelos Intl (ATH) - Newark Liberty Intl (EWR) UA125 2018-06-15 20:29:00
Newark Liberty Intl (EWR) - Eleftherios Venizelos Intl (ATH) UA124 2018-06-15 06:59:00
Time Lat Lon Altitude Heading Speed Vertical Rate
2018-05-20 10:13:35 GMT 47.447170 8.562435 0 64 0 0
2018-05-20 10:13:28 GMT 47.447170 8.562434 0 64 0 0
2018-05-20 10:13:17 GMT 47.447170 8.562435 0 64 0 0
2018-05-20 10:13:12 GMT 47.447159 8.562401 0 64 3 0
2018-05-20 10:13:09 GMT 47.447147 8.562364 0 67 3 0
2018-05-20 10:13:06 GMT 47.447136 8.562315 0 67 3 0
2018-05-20 10:13:02 GMT 47.447113 8.562246 0 67 5 0
2018-05-20 10:12:58 GMT 47.447086 8.562170 0 67 6 0
2018-05-20 10:12:53 GMT 47.447041 8.562029 0 67 5 0
2018-05-20 10:12:49 GMT 47.447010 8.561903 0 67 6 0
2018-05-20 10:12:46 GMT 47.446972 8.561800 0 70 7 0
2018-05-20 10:12:43 GMT 47.446949 8.561712 0 75 6 0
2018-05-20 10:12:39 GMT 47.446896 8.561577 0 84 6 0
2018-05-20 10:12:35 GMT 47.446869 8.561466 0 101 6 0
2018-05-20 10:12:25 GMT 47.446819 8.561167 0 146 6 0
2018-05-20 10:12:17 GMT 47.447010 8.561010 0 154 9 0
2018-05-20 10:12:14 GMT 47.447124 8.560920 0 154 9 0
2018-05-20 10:12:08 GMT 47.447346 8.560762 0 154 9 0
2018-05-20 10:12:04 GMT 47.447456 8.560701 0 154 8 0
2018-05-20 10:11:54 GMT 47.447754 8.560478 0 154 10 0
2018-05-20 10:11:42 GMT 47.448215 8.560163 0 154 11 0
2018-05-20 10:11:33 GMT 47.448555 8.559929 0 154 10 0
2018-05-20 10:11:07 GMT 47.449333 8.559336 0 115 7 0
2018-05-20 10:11:04 GMT 47.449406 8.559230 0 104 7 0
2018-05-20 10:10:55 GMT 47.449463 8.558843 0 95 8 0
2018-05-20 10:10:43 GMT 47.449493 8.558315 0 92 9 0
2018-05-20 10:10:33 GMT 47.449532 8.557786 0 95 8 0
2018-05-20 10:10:22 GMT 47.449562 8.557285 0 92 7 0
2018-05-20 10:10:19 GMT 47.449574 8.557148 0 90 7 0
2018-05-20 10:10:10 GMT 47.449577 8.556765 0 78 7 0
2018-05-20 10:09:56 GMT 47.449459 8.556135 0 64 10 0
2018-05-20 10:09:50 GMT 47.449356 8.555792 0 64 10 0
2018-05-20 10:09:33 GMT 47.449100 8.554864 0 70 10 0
2018-05-20 10:09:24 GMT 47.449219 8.554195 0 135 12 0
2018-05-20 10:09:21 GMT 47.449425 8.554041 0 135 12 0
2018-05-20 10:09:07 GMT 47.450718 8.553148 0 154 27 0
2018-05-20 10:08:54 GMT 47.452374 8.551994 0 154 39 0
2018-05-20 10:08:48 GMT 47.453243 8.551395 0 154 42 0
2018-05-20 10:08:45 GMT 47.453716 8.551054 0 154 42 0
2018-05-20 10:08:42 GMT 47.454224 8.550726 0 157 41 0
2018-05-20 10:08:39 GMT 47.454723 8.550385 0 154 40 0
2018-05-20 10:08:35 GMT 47.455513 8.549811 0 154 40 0
2018-05-20 10:08:32 GMT 47.455925 8.549526 0 154 51 0
2018-05-20 10:08:28 GMT 47.456585 8.549071 0 154 62 0
2018-05-20 10:08:23 GMT 47.458111 8.548033 0 154 88 0
2018-05-20 10:08:15 GMT 47.461403 8.545779 0 154 130 0
2018-05-20 10:08:09 GMT 47.465080 8.543279 1,225 154 155 0
2018-05-20 10:08:06 GMT 47.466980 8.541939 1,225 156 157 128
2018-05-20 10:08:02 GMT 47.469734 8.540109 1,225 154 170 -256
2018-05-20 10:07:55 GMT 47.474167 8.536995 1,250 154 172 -768
2018-05-20 10:07:52 GMT 47.477600 8.534660 1,325 154 173 -768
2018-05-20 10:07:48 GMT 47.479843 8.533081 1,350 154 174 -768
2018-05-20 10:07:45 GMT 47.481747 8.531729 1,400 154 174 -768
2018-05-20 10:07:38 GMT 47.487030 8.528137 1,525 155 174 -768
2018-05-20 10:07:35 GMT 47.489243 8.526588 1,550 155 174 -1024
2018-05-20 10:07:29 GMT 47.493755 8.523489 1,650 154 174 -832
2018-05-20 10:07:24 GMT 47.497009 8.521202 1,700 154 175 -832
2018-05-20 10:07:20 GMT 47.500717 8.518593 1,925 154 174 -1152
2018-05-20 10:07:14 GMT 47.504372 8.516095 1,875 154 173 -1152
2018-05-20 10:07:09 GMT 47.508224 8.513374 2,075 154 169 -1024
2018-05-20 10:07:03 GMT 47.512344 8.510422 2,100 153 167 -896
2018-05-20 10:07:00 GMT 47.514633 8.508774 2,150 154 167 -896
2018-05-20 10:06:57 GMT 47.516708 8.507291 2,175 154 167 -576
2018-05-20 10:06:53 GMT 47.519257 8.505478 2,225 153 165 -960
2018-05-20 10:06:50 GMT 47.521408 8.503899 2,275 153 166 -832
2018-05-20 10:06:46 GMT 47.524521 8.501701 2,325 154 167 -960
2018-05-20 10:06:42 GMT 47.526581 8.500259 2,375 154 170 -960
2018-05-20 10:06:37 GMT 47.531094 8.497009 2,500 154 175 -1216
2018-05-20 10:06:34 GMT 47.532394 8.496094 2,525 154 177 -1088
2018-05-20 10:06:30 GMT 47.535980 8.493558 2,775 156 177 -1280
2018-05-20 10:06:25 GMT 47.539169 8.491333 2,650 155 179 -960
2018-05-20 10:06:22 GMT 47.541843 8.489544 2,725 155 179 -1280
2018-05-20 10:06:19 GMT 47.543755 8.488277 2,775 156 177 -1280
2018-05-20 10:06:14 GMT 47.548130 8.485460 2,875 156 178 -768
2018-05-20 10:06:09 GMT 47.551434 8.483347 2,925 156 178 -832
2018-05-20 10:06:05 GMT 47.554688 8.481308 2,975 155 179 -896
2018-05-20 10:06:01 GMT 47.557487 8.479473 3,025 155 177 -1024
2018-05-20 10:05:58 GMT 47.559814 8.477924 3,075 155 179 -960
2018-05-20 10:05:55 GMT 47.563065 8.475746 3,175 155 178 -1024
2018-05-20 10:05:52 GMT 47.564438 8.474854 3,200 155 179 -960
2018-05-20 10:05:49 GMT 47.566845 8.473206 3,275 154 180 -1088
2018-05-20 10:05:46 GMT 47.568752 8.471867 3,275 153 182 -896
2018-05-20 10:05:42 GMT 47.572998 8.468674 3,375 153 187 -1152
2018-05-20 10:05:39 GMT 47.574478 8.467642 3,675 156 194 -960
2018-05-20 10:05:36 GMT 47.576843 8.465858 3,475 153 190 -1152
2018-05-20 10:05:30 GMT 47.581009 8.462906 3,600 155 193 -1216
2018-05-20 10:05:26 GMT 47.584991 8.460228 3,675 156 194 -960
2018-05-20 10:05:23 GMT 47.588058 8.458237 3,725 157 194 -896
2018-05-20 10:05:19 GMT 47.590771 8.456585 3,775 158 192 -448
2018-05-20 10:05:14 GMT 47.594078 8.454613 3,825 136 187 192
2018-05-20 10:05:11 GMT 47.596779 8.453064 3,825 157 190 -256
2018-05-20 10:05:08 GMT 47.599106 8.451585 3,825 155 190 -256
2018-05-20 10:05:05 GMT 47.602158 8.449516 3,850 153 190 128
2018-05-20 10:05:02 GMT 47.604038 8.448064 3,850 132 186 64
2018-05-20 10:04:58 GMT 47.607346 8.445247 3,825 147 189 -64
2018-05-20 10:04:54 GMT 47.610325 8.442078 3,825 141 188 -128
2018-05-20 10:04:51 GMT 47.612556 8.439120 3,825 134 186 64
2018-05-20 10:04:47 GMT 47.614281 8.436444 3,825 132 186 0
2018-05-20 10:04:40 GMT 47.618797 8.429260 3,825 132 187 64
2018-05-20 10:04:37 GMT 47.620239 8.426936 3,825 132 187 -128
2018-05-20 10:04:33 GMT 47.622437 8.423424 3,825 132 189 0
2018-05-20 10:04:27 GMT 47.626057 8.417640 3,850 132 189 -128
2018-05-20 10:04:22 GMT 47.629715 8.411751 3,850 132 189 -128
2018-05-20 10:04:18 GMT 47.631729 8.408524 3,825 133 186 64
2018-05-20 10:04:15 GMT 47.633461 8.405738 3,825 133 183 64
2018-05-20 10:04:07 GMT 47.637634 8.399254 3,825 132 180 64
2018-05-20 10:04:03 GMT 47.639877 8.395615 3,825 132 180 0
2018-05-20 10:03:57 GMT 47.644402 8.388414 3,850 132 183 -704
2018-05-20 10:03:53 GMT 47.646744 8.384560 3,900 132 186 -1216
2018-05-20 10:03:48 GMT 47.649353 8.380371 4,075 132 186 -1152
2018-05-20 10:03:45 GMT 47.650311 8.378906 4,025 132 186 -1152
2018-05-20 10:03:41 GMT 47.652592 8.375244 4,100 132 186 -1088
2018-05-20 10:03:36 GMT 47.656643 8.368695 4,225 132 189 -960
2018-05-20 10:03:26 GMT 47.661762 8.360032 4,350 128 192 -896
2018-05-20 10:03:23 GMT 47.663067 8.357567 4,400 126 193 -960
2018-05-20 10:03:19 GMT 47.665466 8.352013 4,450 114 195 -832
2018-05-20 10:03:15 GMT 47.667297 8.346451 4,525 113 196 -960
2018-05-20 10:03:09 GMT 47.668945 8.340683 4,600 112 198 -960
2018-05-20 10:03:06 GMT 47.669998 8.336769 4,650 110 200 -1024
2018-05-20 10:03:03 GMT 47.671051 8.332100 4,700 106 201 -1088
2018-05-20 10:02:56 GMT 47.672058 8.322830 4,850 90 202 -1152
2018-05-20 10:02:53 GMT 47.671875 8.318161 4,925 80 201 -1280
2018-05-20 10:02:50 GMT 47.671120 8.313200 5,000 72 202 -1344
2018-05-20 10:02:45 GMT 47.670097 8.309185 5,075 62 201 -1344
2018-05-20 10:02:42 GMT 47.668514 8.304960 5,150 56 202 -1216
2018-05-20 10:02:39 GMT 47.666519 8.300789 5,225 49 202 -1216
2018-05-20 10:02:35 GMT 47.664463 8.297143 5,350 49 202 -1152
2018-05-20 10:02:32 GMT 47.662136 8.293128 5,350 49 203 -1152
2018-05-20 10:02:28 GMT 47.659927 8.289322 5,425 49 204 -960
2018-05-20 10:02:24 GMT 47.657501 8.285202 5,500 49 204 -768
2018-05-20 10:02:21 GMT 47.655247 8.281367 5,550 49 205 -1152
2018-05-20 10:02:16 GMT 47.652649 8.276894 5,675 50 207 -960
2018-05-20 10:02:13 GMT 47.650639 8.273339 5,675 49 207 -832
2018-05-20 10:02:10 GMT 47.648777 8.270029 5,750 50 207 -704
2018-05-20 10:02:05 GMT 47.645966 8.265083 5,775 49 207 -576
2018-05-20 10:02:02 GMT 47.643768 8.261307 5,800 49 207 -128
2018-05-20 10:01:59 GMT 47.642212 8.258550 5,825 49 208 -448
2018-05-20 10:01:56 GMT 47.640163 8.254958 5,825 49 207 -128
2018-05-20 10:01:53 GMT 47.637955 8.251213 5,825 47 209 64
2018-05-20 10:01:49 GMT 47.635025 8.246887 5,825 41 216 128
2018-05-20 10:01:45 GMT 47.633228 8.244253 5,825 41 216 128
2018-05-20 10:01:42 GMT 47.630993 8.241436 5,800 36 221 -64
2018-05-20 10:01:38 GMT 47.627197 8.237480 5,825 30 227 -128
2018-05-20 10:01:35 GMT 47.624954 8.235489 5,825 29 229 -64
2018-05-20 10:01:32 GMT 47.621658 8.232742 5,825 30 231 -128
2018-05-20 10:01:29 GMT 47.619141 8.230545 5,850 30 231 -128
2018-05-20 10:01:26 GMT 47.615845 8.227661 6,100 0 240 -1408
2018-05-20 10:01:23 GMT 47.613304 8.225379 5,850 31 230 0
2018-05-20 10:01:20 GMT 47.609814 8.222351 5,825 29 229 0
2018-05-20 10:01:17 GMT 47.608135 8.220943 5,825 29 229 64
2018-05-20 10:01:14 GMT 47.605087 8.218391 5,825 26 232 -128
2018-05-20 10:01:11 GMT 47.600922 8.215379 5,850 23 234 -448
2018-05-20 10:01:08 GMT 47.599010 8.214252 5,850 20 236 -704
2018-05-20 10:01:04 GMT 47.594742 8.212280 5,925 12 238 -1344
2018-05-20 10:01:01 GMT 47.590912 8.211365 6,000 358 242 -1344
2018-05-20 10:00:58 GMT 47.588287 8.211113 6,175 0 240 -1344
2018-05-20 10:00:55 GMT 47.584625 8.211044 6,175 359 240 -1344
2018-05-20 10:00:51 GMT 47.580715 8.211224 6,275 359 241 -1344
2018-05-20 10:00:47 GMT 47.576614 8.211388 6,350 359 242 -1344
2018-05-20 10:00:44 GMT 47.571590 8.211576 6,400 358 242 -1344
2018-05-20 10:00:41 GMT 47.569885 8.211662 6,450 358 242 -1344
2018-05-20 10:00:38 GMT 47.566177 8.211868 6,500 358 243 -1344
2018-05-20 10:00:35 GMT 47.563385 8.212006 6,575 359 243 -1280
2018-05-20 10:00:31 GMT 47.558441 8.212212 6,650 0 244 -1408
2018-05-20 10:00:28 GMT 47.554504 8.212143 6,775 2 244 -1472
2018-05-20 10:00:25 GMT 47.551346 8.211800 6,825 5 244 -1536
2018-05-20 10:00:20 GMT 47.545898 8.210426 7,050 21 243 -1664
2018-05-20 10:00:16 GMT 47.541985 8.208477 7,100 25 243 -1600
2018-05-20 10:00:12 GMT 47.537003 8.204674 7,225 33 242 -1664
2018-05-20 10:00:09 GMT 47.535141 8.202805 7,225 52 241 -1664
2018-05-20 10:00:05 GMT 47.530861 8.197068 7,375 50 241 -1600
2018-05-20 10:00:00 GMT 47.528046 8.191887 7,575 62 240 -1792
2018-05-20 09:59:57 GMT 47.526260 8.187561 7,575 62 240 -1792
2018-05-20 09:59:54 GMT 47.524853 8.183124 7,650 69 239 -1664
2018-05-20 09:59:51 GMT 47.523651 8.178223 7,750 77 238 -1408
2018-05-20 09:59:48 GMT 47.522667 8.172560 7,825 77 238 -1408
2018-05-20 09:59:44 GMT 47.521957 8.167717 7,925 78 239 -1280
2018-05-20 09:59:39 GMT 47.520905 8.159752 8,050 78 242 -512
2018-05-20 09:59:36 GMT 47.520126 8.154053 8,050 78 242 -512
2018-05-20 09:59:33 GMT 47.519440 8.149040 8,075 78 244 -448
2018-05-20 09:59:28 GMT 47.518616 8.142723 8,150 78 249 -704
2018-05-20 09:59:25 GMT 47.517609 8.135376 8,175 78 250 -832
2018-05-20 09:59:22 GMT 47.516968 8.130501 8,200 78 251 -832
2018-05-20 09:59:19 GMT 47.516193 8.124601 8,250 78 253 -896
2018-05-20 09:59:16 GMT 47.515594 8.120544 8,300 78 255 -1024
2018-05-20 09:59:13 GMT 47.514999 8.116081 8,450 79 257 -1280
2018-05-20 09:59:10 GMT 47.514240 8.110234 8,400 79 256 -1152
2018-05-20 09:59:06 GMT 47.513397 8.103722 8,525 79 257 -1344
2018-05-20 09:59:03 GMT 47.512665 8.097679 8,600 79 257 -1408
2018-05-20 09:59:00 GMT 47.512192 8.094036 8,600 79 257 -1408
2018-05-20 09:58:57 GMT 47.511383 8.087517 8,725 79 257 -1280
2018-05-20 09:58:54 GMT 47.510700 8.082275 8,750 79 257 -1216
2018-05-20 09:58:51 GMT 47.510052 8.076782 8,900 80 259 -640
2018-05-20 09:58:48 GMT 47.509632 8.073331 8,850 79 258 -960
2018-05-20 09:58:43 GMT 47.508453 8.063416 8,925 80 259 -640
2018-05-20 09:58:40 GMT 47.507816 8.058120 8,950 80 261 -256
2018-05-20 09:58:37 GMT 47.507446 8.054832 8,975 80 261 -128
2018-05-20 09:58:34 GMT 47.506668 8.047417 8,975 81 262 0
2018-05-20 09:58:31 GMT 47.506279 8.043682 8,975 81 262 0
2018-05-20 09:58:28 GMT 47.505489 8.036640 8,975 79 262 0
2018-05-20 09:58:23 GMT 47.504372 8.027625 8,975 79 262 0
2018-05-20 09:58:19 GMT 47.503510 8.020775 8,975 79 263 64
2018-05-20 09:58:14 GMT 47.502556 8.013470 8,975 79 264 64
2018-05-20 09:58:11 GMT 47.501625 8.006427 8,975 79 264 64
2018-05-20 09:58:06 GMT 47.500694 7.999315 8,975 78 265 0
2018-05-20 09:58:03 GMT 47.499802 7.992554 8,975 76 265 -64
2018-05-20 09:58:00 GMT 47.499161 7.988297 8,975 77 265 -64
2018-05-20 09:57:56 GMT 47.498272 7.982131 8,975 77 266 -64
2018-05-20 09:57:52 GMT 47.496967 7.973609 8,975 76 265 -64
2018-05-20 09:57:49 GMT 47.496002 7.967285 8,975 76 265 0
2018-05-20 09:57:45 GMT 47.495132 7.961792 8,975 76 264 0
2018-05-20 09:57:40 GMT 47.493710 7.952834 8,975 77 264 128
2018-05-20 09:57:37 GMT 47.492981 7.948265 8,975 77 264 128
2018-05-20 09:57:34 GMT 47.492268 7.943679 8,975 76 264 0
2018-05-20 09:57:31 GMT 47.491287 7.937759 8,975 71 264 0
2018-05-20 09:57:28 GMT 47.490189 7.932816 8,975 67 265 0
2018-05-20 09:57:24 GMT 47.487705 7.924523 8,975 60 265 -64
2018-05-20 09:57:21 GMT 47.485889 7.920086 8,975 37 265 64
2018-05-20 09:57:18 GMT 47.484055 7.916405 8,975 37 265 64
2018-05-20 09:57:14 GMT 47.480721 7.910861 8,975 25 264 0
2018-05-20 09:57:11 GMT 47.477791 7.906987 8,975 37 265 64
2018-05-20 09:57:07 GMT 47.474297 7.903325 8,975 30 265 0
2018-05-20 09:57:02 GMT 47.468945 7.899029 8,975 23 264 0
2018-05-20 09:56:59 GMT 47.464966 7.896767 8,975 16 264 0
2018-05-20 09:56:56 GMT 47.462753 7.895790 8,975 12 264 0
2018-05-20 09:56:51 GMT 47.456238 7.894240 8,975 0 265 0
2018-05-20 09:56:48 GMT 47.451115 7.894099 8,975 357 264 0
2018-05-20 09:56:45 GMT 47.449402 7.894295 8,975 355 265 0
2018-05-20 09:56:40 GMT 47.441254 7.896767 8,975 342 265 0
2018-05-20 09:56:37 GMT 47.438034 7.898536 8,975 335 265 0
2018-05-20 09:56:34 GMT 47.436497 7.899522 8,975 335 265 0
2018-05-20 09:56:30 GMT 47.431377 7.903818 8,975 326 264 -64
2018-05-20 09:56:27 GMT 47.427837 7.907691 8,975 317 263 -64
2018-05-20 09:56:24 GMT 47.425884 7.910297 8,975 316 264 0
2018-05-20 09:56:20 GMT 47.422718 7.915297 8,975 309 262 0
2018-05-20 09:56:17 GMT 47.419876 7.921072 8,975 299 261 64
2018-05-20 09:56:14 GMT 47.418274 7.925056 8,975 297 261 128
2018-05-20 09:56:09 GMT 47.415848 7.933022 8,975 289 260 128
2018-05-20 09:56:05 GMT 47.414520 7.939270 8,975 281 261 64
2018-05-20 09:56:02 GMT 47.413879 7.944008 8,950 279 261 64
2018-05-20 09:55:59 GMT 47.413361 7.950862 8,975 268 263 -128
2018-05-20 09:55:55 GMT 47.413422 7.957329 8,975 263 264 0
2018-05-20 09:55:52 GMT 47.413742 7.962135 8,975 259 266 -64
2018-05-20 09:55:48 GMT 47.414658 7.969276 8,975 258 268 -128
2018-05-20 09:55:45 GMT 47.415710 7.976555 8,975 258 270 -64
2018-05-20 09:55:40 GMT 47.416763 7.983421 8,975 259 272 0
2018-05-20 09:55:36 GMT 47.417908 7.991386 8,975 258 273 64
2018-05-20 09:55:33 GMT 47.418549 7.995575 8,975 255 272 0
2018-05-20 09:55:30 GMT 47.419785 8.001991 8,975 247 272 64
2018-05-20 09:55:27 GMT 47.421158 8.007385 8,975 245 271 64
2018-05-20 09:55:24 GMT 47.422897 8.012672 8,975 238 271 64
2018-05-20 09:55:20 GMT 47.425465 8.018611 8,975 233 271 0
2018-05-20 09:55:16 GMT 47.428986 8.024826 8,975 224 270 0
2018-05-20 09:55:13 GMT 47.432076 8.029104 8,975 220 271 0
2018-05-20 09:55:09 GMT 47.436356 8.033958 8,975 210 271 0
2018-05-20 09:55:06 GMT 47.439243 8.036569 8,975 208 271 0
2018-05-20 09:55:02 GMT 47.443542 8.040001 8,975 205 272 64
2018-05-20 09:54:59 GMT 47.445950 8.041640 8,975 202 273 -128
2018-05-20 09:54:56 GMT 47.449299 8.043753 8,975 201 273 -128
2018-05-20 09:54:53 GMT 47.453293 8.046112 8,975 201 273 -128
2018-05-20 09:54:49 GMT 47.459427 8.049065 8,975 196 272 -64
2018-05-20 09:54:46 GMT 47.461853 8.050026 8,975 194 271 0
2018-05-20 09:54:43 GMT 47.465733 8.051359 8,975 194 271 0
2018-05-20 09:54:40 GMT 47.468811 8.052498 8,975 195 271 0
2018-05-20 09:54:37 GMT 47.473160 8.054283 8,975 199 270 64
2018-05-20 09:54:34 GMT 47.476227 8.055794 8,975 208 271 128
2018-05-20 09:54:31 GMT 47.479885 8.057767 8,975 205 270 128
2018-05-20 09:54:28 GMT 47.483551 8.060120 8,975 207 270 128
2018-05-20 09:54:25 GMT 47.486542 8.062415 8,950 214 272 0
2018-05-20 09:54:22 GMT 47.490452 8.065725 8,950 214 272 0
2018-05-20 09:54:17 GMT 47.495293 8.070726 8,950 219 273 -64
2018-05-20 09:54:14 GMT 47.497250 8.073050 8,975 223 273 -128
2018-05-20 09:54:10 GMT 47.501816 8.078934 8,975 223 273 -64
2018-05-20 09:54:07 GMT 47.503765 8.081571 8,975 223 271 64
2018-05-20 09:54:04 GMT 47.506577 8.085388 8,975 223 271 64
2018-05-20 09:54:01 GMT 47.510609 8.090797 8,975 223 272 0
2018-05-20 09:53:57 GMT 47.513580 8.094795 8,975 223 271 64
2018-05-20 09:53:54 GMT 47.516335 8.098544 8,975 222 271 64
2018-05-20 09:53:50 GMT 47.520386 8.103825 8,975 205 269 0
2018-05-20 09:53:47 GMT 47.523468 8.107567 8,975 216 270 0
2018-05-20 09:53:43 GMT 47.527130 8.111206 8,975 209 270 0
2018-05-20 09:53:40 GMT 47.531651 8.114601 8,975 201 269 0
2018-05-20 09:53:33 GMT 47.538540 8.117840 8,975 176 270 64
2018-05-20 09:53:30 GMT 47.542694 8.118828 8,975 183 269 64
2018-05-20 09:53:27 GMT 47.545807 8.119171 8,975 183 269 64
2018-05-20 09:53:24 GMT 47.551388 8.118685 8,975 172 271 64
2018-05-20 09:53:21 GMT 47.557022 8.117043 8,975 157 275 0
2018-05-20 09:53:18 GMT 47.557766 8.116713 8,975 156 275 0
2018-05-20 09:53:13 GMT 47.564117 8.112991 8,975 152 276 0
2018-05-20 09:53:09 GMT 47.568241 8.109460 8,975 144 278 64
2018-05-20 09:53:05 GMT 47.571350 8.106056 8,950 137 280 64
2018-05-20 09:53:02 GMT 47.574852 8.101290 8,950 129 281 -64
2018-05-20 09:52:59 GMT 47.577164 8.097404 8,975 128 282 -64
2018-05-20 09:52:56 GMT 47.579773 8.092117 8,975 120 283 -192
2018-05-20 09:52:53 GMT 47.581646 8.087205 8,975 112 284 -128
2018-05-20 09:52:50 GMT 47.583344 8.081749 8,975 111 285 -128
2018-05-20 09:52:47 GMT 47.584534 8.076942 9,000 107 284 0
2018-05-20 09:52:44 GMT 47.585606 8.072205 9,000 105 284 -64
2018-05-20 09:52:41 GMT 47.586685 8.066574 9,000 104 284 0
2018-05-20 09:52:38 GMT 47.587654 8.060937 9,000 102 282 0
2018-05-20 09:52:34 GMT 47.588791 8.052841 9,000 83 274 128
2018-05-20 09:52:31 GMT 47.589329 8.046711 9,000 91 278 0
2018-05-20 09:52:27 GMT 47.589466 8.037837 9,000 91 278 0
2018-05-20 09:52:24 GMT 47.589233 8.033682 8,975 77 270 384
2018-05-20 09:52:21 GMT 47.588470 8.027298 8,975 72 267 576
2018-05-20 09:52:18 GMT 47.587692 8.023041 8,950 74 269 512
2018-05-20 09:52:15 GMT 47.586777 8.018646 8,925 70 267 704
2018-05-20 09:52:11 GMT 47.584396 8.009171 8,850 69 271 384
2018-05-20 09:52:08 GMT 47.583740 8.006568 8,850 69 274 -64
2018-05-20 09:52:05 GMT 47.582153 8.000244 8,875 69 276 -832
2018-05-20 09:52:02 GMT 47.580856 7.995300 8,900 69 276 -1216
2018-05-20 09:51:58 GMT 47.578445 7.985756 9,000 69 278 -1280
2018-05-20 09:51:54 GMT 47.577271 7.981074 9,100 69 280 -1088
2018-05-20 09:51:51 GMT 47.575874 7.975581 9,125 69 279 -1152
2018-05-20 09:51:48 GMT 47.574341 7.969454 9,225 69 280 -1088
2018-05-20 09:51:45 GMT 47.572803 7.963186 9,250 69 281 -1088
2018-05-20 09:51:42 GMT 47.571350 7.957397 9,325 69 281 -1280
2018-05-20 09:51:39 GMT 47.570114 7.952522 9,425 69 282 -1728
2018-05-20 09:51:36 GMT 47.568985 7.948045 9,625 69 284 -1728
2018-05-20 09:51:33 GMT 47.567497 7.942200 9,650 69 285 -1600
2018-05-20 09:51:30 GMT 47.566315 7.937691 9,625 69 285 -1600
2018-05-20 09:51:26 GMT 47.564026 7.928764 9,750 69 286 -1536
2018-05-20 09:51:23 GMT 47.562840 7.924171 9,825 69 286 -1536
2018-05-20 09:51:19 GMT 47.561352 7.918326 9,900 69 288 -1408
2018-05-20 09:51:16 GMT 47.559582 7.911494 10,025 69 290 -1280
2018-05-20 09:51:12 GMT 47.558044 7.905579 10,050 69 291 -1280
2018-05-20 09:51:08 GMT 47.555576 7.896071 10,225 69 293 -1344
2018-05-20 09:51:05 GMT 47.553864 7.889351 10,225 69 294 -1344
2018-05-20 09:51:02 GMT 47.552994 7.885986 10,375 68 295 -1344
2018-05-20 09:50:59 GMT 47.551434 7.879944 10,375 68 297 -1216
2018-05-20 09:50:56 GMT 47.550179 7.875225 10,450 68 297 -1152
2018-05-20 09:50:52 GMT 47.547569 7.865155 10,500 68 300 -1088
2018-05-20 09:50:48 GMT 47.545570 7.857478 10,575 69 301 -1152
2018-05-20 09:50:45 GMT 47.544594 7.853605 10,625 69 303 -1216
2018-05-20 09:50:42 GMT 47.543060 7.847397 10,675 71 304 -1280
2018-05-20 09:50:38 GMT 47.541550 7.840187 10,750 75 305 -1408
2018-05-20 09:50:35 GMT 47.540359 7.832497 10,850 84 309 -960
2018-05-20 09:50:32 GMT 47.539749 7.826209 10,975 86 308 -896
2018-05-20 09:50:28 GMT 47.539398 7.819107 10,950 90 310 -704
2018-05-20 09:50:24 GMT 47.539516 7.810434 10,975 94 309 -256
2018-05-20 09:50:21 GMT 47.540031 7.803885 10,975 100 310 0
2018-05-20 09:50:18 GMT 47.540821 7.797476 10,975 111 312 64
2018-05-20 09:50:14 GMT 47.542419 7.789032 10,975 108 311 64
2018-05-20 09:50:11 GMT 47.543987 7.782898 10,975 115 313 128
2018-05-20 09:50:07 GMT 47.546455 7.775362 11,000 118 314 64
2018-05-20 09:50:03 GMT 47.549294 7.768461 10,975 126 314 -128
2018-05-20 09:50:00 GMT 47.551807 7.763461 11,000 138 313 -64
2018-05-20 09:49:56 GMT 47.556290 7.756073 11,000 135 313 -64
2018-05-20 09:49:53 GMT 47.559540 7.751541 11,000 139 312 0
2018-05-20 09:49:50 GMT 47.563156 7.746941 11,000 139 312 0
2018-05-20 09:49:46 GMT 47.566612 7.742474 11,000 139 312 -64
2018-05-20 09:49:42 GMT 47.571442 7.736298 11,175 139 329 -832
2018-05-20 09:49:39 GMT 47.574783 7.731972 11,000 139 309 0
2018-05-20 09:49:36 GMT 47.577271 7.728811 11,000 139 309 0
2018-05-20 09:49:32 GMT 47.582245 7.722427 11,000 139 310 -64
2018-05-20 09:49:29 GMT 47.585220 7.718651 11,000 139 311 -64
2018-05-20 09:49:26 GMT 47.588242 7.714806 11,000 139 313 -64
2018-05-20 09:49:22 GMT 47.592541 7.709304 11,000 139 315 -64
2018-05-20 09:49:19 GMT 47.597076 7.703545 11,025 139 318 -192
2018-05-20 09:49:15 GMT 47.601200 7.698247 11,025 139 321 -256
2018-05-20 09:49:12 GMT 47.604126 7.694481 11,050 139 323 -256
2018-05-20 09:49:08 GMT 47.609344 7.687820 11,075 139 326 -512
2018-05-20 09:49:05 GMT 47.612411 7.683838 11,150 139 328 -704
2018-05-20 09:49:01 GMT 47.615864 7.679443 11,125 139 329 -832
2018-05-20 09:48:57 GMT 47.620239 7.673880 11,225 139 331 -1408
2018-05-20 09:48:54 GMT 47.625126 7.667682 11,275 139 331 -1664
2018-05-20 09:48:51 GMT 47.628479 7.663386 11,350 138 331 -1728
2018-05-20 09:48:47 GMT 47.633320 7.657119 11,500 138 330 -1984
2018-05-20 09:48:44 GMT 47.636627 7.652752 11,575 138 330 -2432
2018-05-20 09:48:41 GMT 47.638779 7.649918 11,750 138 330 -2624
2018-05-20 09:48:37 GMT 47.643471 7.643738 11,925 138 330 -2688
2018-05-20 09:48:34 GMT 47.648495 7.637118 12,075 138 330 -2624
2018-05-20 09:48:30 GMT 47.652126 7.632329 12,175 138 330 -2560
2018-05-20 09:48:24 GMT 47.658413 7.624019 12,400 138 330 -2432
2018-05-20 09:48:20 GMT 47.663578 7.617258 12,575 138 332 -2368
2018-05-20 09:48:15 GMT 47.669304 7.609652 12,850 138 334 -2240
2018-05-20 09:48:12 GMT 47.671726 7.606483 13,075 138 335 -2176
2018-05-20 09:48:09 GMT 47.675446 7.601646 12,975 138 335 -2176
2018-05-20 09:48:06 GMT 47.679592 7.596130 13,125 138 336 -2176
2018-05-20 09:48:03 GMT 47.683552 7.590919 13,225 138 337 -2176
2018-05-20 09:48:00 GMT 47.686707 7.586815 13,350 138 338 -2240
2018-05-20 09:47:57 GMT 47.690578 7.581693 13,475 138 339 -2240
2018-05-20 09:47:54 GMT 47.693756 7.577545 13,550 138 339 -2176
2018-05-20 09:47:50 GMT 47.699524 7.569923 13,725 138 342 -2304
2018-05-20 09:47:47 GMT 47.701630 7.567177 13,800 138 342 -2304
2018-05-20 09:47:43 GMT 47.706161 7.561203 14,375 138 344 -2368
2018-05-20 09:47:40 GMT 47.710648 7.555229 14,150 138 345 -2304
2018-05-20 09:47:37 GMT 47.712799 7.552414 14,325 138 345 -2304
2018-05-20 09:47:33 GMT 47.718887 7.544380 14,450 137 351 -2432
2018-05-20 09:47:28 GMT 47.724930 7.536209 14,575 137 347 -2368
2018-05-20 09:47:23 GMT 47.730377 7.528793 15,150 137 351 -2432
2018-05-20 09:47:20 GMT 47.734756 7.522818 15,300 137 351 -2496
2018-05-20 09:47:17 GMT 47.737244 7.519386 14,975 137 350 -2368
2018-05-20 09:47:12 GMT 47.743332 7.511147 15,200 137 350 -2368
2018-05-20 09:47:09 GMT 47.747280 7.505775 15,300 137 351 -2432
2018-05-20 09:47:06 GMT 47.750290 7.501671 15,425 137 351 -2496
2018-05-20 09:47:02 GMT 47.755875 7.494049 15,750 137 351 -2432
2018-05-20 09:46:56 GMT 47.762318 7.485211 15,825 137 350 -2688
2018-05-20 09:46:51 GMT 47.768234 7.477020 16,050 136 350 -2688
2018-05-20 09:46:46 GMT 47.774551 7.468300 16,275 136 351 -2560
2018-05-20 09:46:40 GMT 47.781078 7.459224 16,525 137 352 -2688
2018-05-20 09:46:36 GMT 47.786339 7.452040 16,725 137 353 -2624
2018-05-20 09:46:32 GMT 47.790527 7.446259 16,975 137 354 -2496
2018-05-20 09:46:29 GMT 47.793777 7.441795 17,000 137 354 -2496
2018-05-20 09:46:25 GMT 47.799088 7.434586 17,225 137 356 -2560
2018-05-20 09:46:19 GMT 47.806137 7.424904 17,625 137 359 -2368
2018-05-20 09:46:14 GMT 47.814148 7.413918 17,700 137 365 -1472
2018-05-20 09:46:09 GMT 47.819000 7.407188 18,250 137 363 -1408
2018-05-20 09:46:04 GMT 47.824650 7.399503 18,050 137 365 -1472
2018-05-20 09:46:00 GMT 47.829208 7.393250 18,200 137 371 -2176
2018-05-20 09:45:57 GMT 47.833122 7.387813 18,300 137 365 -1472
2018-05-20 09:45:53 GMT 47.837723 7.381508 18,300 137 365 -1472
2018-05-20 09:45:49 GMT 47.843922 7.372953 18,475 136 367 -1472
2018-05-20 09:45:45 GMT 47.848755 7.366264 18,500 136 367 -1472
2018-05-20 09:45:42 GMT 47.851456 7.362488 18,650 136 369 -1536
2018-05-20 09:45:38 GMT 47.857937 7.353516 19,025 137 371 -2176
2018-05-20 09:45:33 GMT 47.864311 7.344642 18,825 136 370 -1600
2018-05-20 09:45:30 GMT 47.866699 7.341339 18,900 136 370 -1600
2018-05-20 09:45:27 GMT 47.871689 7.334404 18,975 136 371 -1600
2018-05-20 09:45:24 GMT 47.874435 7.330559 19,025 136 372 -1664
2018-05-20 09:45:20 GMT 47.879349 7.323796 19,200 137 371 -1984
2018-05-20 09:45:17 GMT 47.883133 7.318611 19,350 137 372 -2112
2018-05-20 09:45:14 GMT 47.887543 7.312528 19,575 137 371 -2176
2018-05-20 09:45:10 GMT 47.892334 7.305908 19,675 137 370 -2112
2018-05-20 09:45:07 GMT 47.895950 7.300896 19,700 137 370 -1920
2018-05-20 09:45:04 GMT 47.901367 7.293443 19,975 139 380 -192
2018-05-20 09:44:59 GMT 47.907120 7.285446 19,900 137 373 -640
2018-05-20 09:44:55 GMT 47.911011 7.280022 19,925 137 372 -896
2018-05-20 09:44:52 GMT 47.914169 7.275696 19,975 139 380 -192
2018-05-20 09:44:48 GMT 47.919945 7.267808 19,975 138 377 -64
2018-05-20 09:44:43 GMT 47.926804 7.258873 20,000 139 381 -320
2018-05-20 09:44:40 GMT 47.930836 7.253794 20,000 139 381 -320
2018-05-20 09:44:37 GMT 47.934002 7.249920 20,025 141 384 -768
2018-05-20 09:44:32 GMT 47.941402 7.241258 20,125 142 387 -1344
2018-05-20 09:44:29 GMT 47.946304 7.235802 20,250 144 389 -1600
2018-05-20 09:44:26 GMT 47.950516 7.231201 20,375 145 390 -1600
2018-05-20 09:44:22 GMT 47.957325 7.224215 20,400 146 391 -1600
2018-05-20 09:44:19 GMT 47.960304 7.221187 20,675 148 392 -1664
2018-05-20 09:44:16 GMT 47.966537 7.215202 20,575 147 392 -1600
2018-05-20 09:44:13 GMT 47.970703 7.211288 20,650 148 392 -1664
2018-05-20 09:44:09 GMT 47.976105 7.206345 20,725 148 393 -1728
2018-05-20 09:44:05 GMT 47.981579 7.201468 21,000 149 394 -1792
2018-05-20 09:44:02 GMT 47.987072 7.196679 21,000 149 395 -1792
2018-05-20 09:43:59 GMT 47.991680 7.192665 21,400 150 396 -1792
2018-05-20 09:43:54 GMT 47.999908 7.185608 21,325 150 396 -1728
2018-05-20 09:43:51 GMT 48.005951 7.180458 21,325 150 396 -1728
2018-05-20 09:43:47 GMT 48.010574 7.176544 21,775 150 398 -1664
2018-05-20 09:43:44 GMT 48.016342 7.171669 21,500 150 398 -1664
2018-05-20 09:43:41 GMT 48.020309 7.168297 21,625 150 399 -1600
2018-05-20 09:43:38 GMT 48.025009 7.164354 21,700 150 400 -1600
2018-05-20 09:43:35 GMT 48.029526 7.160614 21,800 149 405 -1728
2018-05-20 09:43:32 GMT 48.035812 7.155269 21,825 149 402 -1664
2018-05-20 09:43:28 GMT 48.042236 7.149776 22,050 149 403 -1664
2018-05-20 09:43:25 GMT 48.045448 7.147029 21,975 149 403 -1664
2018-05-20 09:43:21 GMT 48.053360 7.140127 22,150 149 403 -1664
2018-05-20 09:43:18 GMT 48.058228 7.135963 22,200 149 405 -1728
2018-05-20 09:43:15 GMT 48.062073 7.132599 22,275 149 405 -1728
2018-05-20 09:43:11 GMT 48.068398 7.127099 22,900 150 412 -1792
2018-05-20 09:43:08 GMT 48.073097 7.122944 22,525 149 407 -1664
2018-05-20 09:43:05 GMT 48.078598 7.118111 22,700 149 409 -1728
2018-05-20 09:43:01 GMT 48.084923 7.112521 22,825 149 415 -2176
2018-05-20 09:42:58 GMT 48.089996 7.108084 22,800 149 410 -1728
2018-05-20 09:42:54 GMT 48.095718 7.103073 22,950 150 412 -1792
2018-05-20 09:42:51 GMT 48.101440 7.098129 23,275 149 413 -1856
2018-05-20 09:42:48 GMT 48.106522 7.093666 23,075 149 411 -1728
2018-05-20 09:42:45 GMT 48.112621 7.088435 23,475 150 412 -1792
2018-05-20 09:42:42 GMT 48.116776 7.084877 23,250 149 413 -1856
2018-05-20 09:42:38 GMT 48.123192 7.079280 23,375 149 413 -1856
2018-05-20 09:42:35 GMT 48.128174 7.074989 23,525 149 414 -1920
2018-05-20 09:42:32 GMT 48.133804 7.070114 23,575 150 415 -1984
2018-05-20 09:42:27 GMT 48.141296 7.063646 23,775 149 415 -2176
2018-05-20 09:42:24 GMT 48.145615 7.059952 23,875 149 415 -2112
2018-05-20 09:42:20 GMT 48.153763 7.052879 24,225 149 416 -2112
2018-05-20 09:42:17 GMT 48.158066 7.049171 24,200 149 415 -2048
2018-05-20 09:42:14 GMT 48.164383 7.043715 24,200 150 416 -2048
2018-05-20 09:42:08 GMT 48.171890 7.037236 24,375 150 416 -1984
2018-05-20 09:42:05 GMT 48.177608 7.032406 24,475 150 417 -1920
2018-05-20 09:42:01 GMT 48.183987 7.026986 24,600 150 419 -1472
2018-05-20 09:41:58 GMT 48.189697 7.022165 24,750 150 419 -1280
2018-05-20 09:41:55 GMT 48.194088 7.018457 24,750 150 419 -1280
2018-05-20 09:41:52 GMT 48.201324 7.012306 24,975 149 420 -1024
2018-05-20 09:41:49 GMT 48.203865 7.010145 24,900 149 422 -704
2018-05-20 09:41:46 GMT 48.209885 7.004911 24,950 149 422 -512
2018-05-20 09:41:43 GMT 48.217026 6.998784 25,000 150 423 -128
2018-05-20 09:41:40 GMT 48.221462 6.995038 25,000 151 425 0
2018-05-20 09:41:37 GMT 48.225082 6.992164 25,000 153 425 0
2018-05-20 09:41:34 GMT 48.230530 6.988009 25,000 156 426 -64
2018-05-20 09:41:31 GMT 48.236206 6.983995 25,000 155 426 0
2018-05-20 09:41:27 GMT 48.243061 6.979499 25,000 158 427 0
2018-05-20 09:41:24 GMT 48.247299 6.976969 25,000 160 427 0
2018-05-20 09:41:20 GMT 48.257492 6.971403 25,000 160 427 0
2018-05-20 09:41:17 GMT 48.262939 6.968801 25,000 163 427 0
2018-05-20 09:41:12 GMT 48.271503 6.965043 25,000 166 428 0
2018-05-20 09:41:09 GMT 48.278412 6.962374 25,000 168 428 0
2018-05-20 09:41:05 GMT 48.285736 6.959909 25,000 168 428 0
2018-05-20 09:41:02 GMT 48.291569 6.958176 25,000 170 429 0
2018-05-20 09:40:59 GMT 48.295670 6.957092 25,000 174 430 0
2018-05-20 09:40:55 GMT 48.303909 6.955332 25,000 176 430 0
2018-05-20 09:40:52 GMT 48.309998 6.954275 24,975 177 431 0
2018-05-20 09:40:49 GMT 48.315964 6.953623 24,975 178 432 0
2018-05-20 09:40:45 GMT 48.325737 6.952972 24,975 178 432 0
2018-05-20 09:40:42 GMT 48.329498 6.952867 25,000 179 432 0
2018-05-20 09:40:38 GMT 48.337330 6.952756 25,000 179 433 0
2018-05-20 09:40:32 GMT 48.349339 6.952611 25,000 179 433 -64
2018-05-20 09:40:29 GMT 48.355534 6.952539 25,000 179 433 0
2018-05-20 09:40:26 GMT 48.361725 6.952466 25,000 179 433 0
2018-05-20 09:40:23 GMT 48.366531 6.952374 25,000 179 433 0
2018-05-20 09:40:19 GMT 48.377884 6.952163 24,975 179 432 0
2018-05-20 09:40:15 GMT 48.383286 6.952022 25,000 178 432 -64
2018-05-20 09:40:09 GMT 48.395279 6.951740 24,975 178 432 -64
2018-05-20 09:40:06 GMT 48.402283 6.951458 24,975 177 430 -128
2018-05-20 09:40:03 GMT 48.407272 6.951247 25,000 178 432 0
2018-05-20 09:40:00 GMT 48.412464 6.951093 25,000 178 432 0
2018-05-20 09:39:57 GMT 48.418854 6.950824 24,975 178 432 -64
2018-05-20 09:39:54 GMT 48.424622 6.950543 24,975 178 432 -192
2018-05-20 09:39:50 GMT 48.432632 6.950191 24,975 178 432 0
2018-05-20 09:39:47 GMT 48.441788 6.949838 25,000 178 432 -64
2018-05-20 09:39:44 GMT 48.445816 6.949698 24,975 178 432 -64
2018-05-20 09:39:40 GMT 48.453003 6.949346 25,000 178 431 -128
2018-05-20 09:39:37 GMT 48.459763 6.949069 25,000 177 431 -128
2018-05-20 09:39:34 GMT 48.466511 6.948636 25,000 176 430 64
2018-05-20 09:39:31 GMT 48.470516 6.948347 25,000 235 445 0
2018-05-20 09:39:28 GMT 48.478271 6.947726 25,000 176 430 128
2018-05-20 09:39:25 GMT 48.483227 6.947407 25,000 177 430 192
2018-05-20 09:39:22 GMT 48.488579 6.947046 25,000 177 430 192
2018-05-20 09:39:19 GMT 48.494568 6.946881 25,000 181 432 0
2018-05-20 09:39:15 GMT 48.504128 6.947479 25,000 188 434 0
2018-05-20 09:39:12 GMT 48.506882 6.948007 25,000 313 422 0
2018-05-20 09:39:09 GMT 48.513809 6.949864 25,000 196 437 -64
2018-05-20 09:39:04 GMT 48.524643 6.954768 25,000 203 439 0
2018-05-20 09:38:58 GMT 48.536247 6.962802 25,000 210 441 0
2018-05-20 09:38:53 GMT 48.544350 6.970608 25,000 224 444 0
2018-05-20 09:38:50 GMT 48.551376 6.979065 25,000 224 444 0
2018-05-20 09:38:45 GMT 48.558289 6.989629 25,000 231 445 0
2018-05-20 09:38:42 GMT 48.560394 6.993361 25,000 236 445 -64
2018-05-20 09:38:37 GMT 48.567623 7.008844 25,000 240 446 64
2018-05-20 09:38:34 GMT 48.569916 7.015052 25,000 261 444 -128
2018-05-20 09:38:31 GMT 48.572838 7.024311 25,000 261 444 -128
2018-05-20 09:38:26 GMT 48.576187 7.038261 24,975 258 446 64
2018-05-20 09:38:22 GMT 48.578110 7.049983 25,000 293 433 -128
2018-05-20 09:38:16 GMT 48.579540 7.068763 25,000 268 443 -64
2018-05-20 09:38:13 GMT 48.579575 7.077942 25,000 274 441 64
2018-05-20 09:38:10 GMT 48.579308 7.085314 25,000 326 413 128
2018-05-20 09:38:05 GMT 48.577515 7.102239 25,000 284 438 0
2018-05-20 09:38:02 GMT 48.575958 7.111407 25,000 296 432 0
2018-05-20 09:37:59 GMT 48.574310 7.118507 25,000 296 432 0
2018-05-20 09:37:54 GMT 48.570602 7.131211 25,000 299 430 0
2018-05-20 09:37:50 GMT 48.566460 7.142053 25,000 306 426 0
2018-05-20 09:37:47 GMT 48.562363 7.150762 25,000 308 424 64
2018-05-20 09:37:43 GMT 48.557152 7.159978 25,000 318 418 0
2018-05-20 09:37:39 GMT 48.550304 7.169808 25,000 321 416 0
2018-05-20 09:37:36 GMT 48.548080 7.172523 25,000 325 414 64
2018-05-20 09:37:33 GMT 48.540855 7.180144 25,000 329 410 64
2018-05-20 09:37:29 GMT 48.535782 7.184553 25,000 337 405 0
2018-05-20 09:37:25 GMT 48.530567 7.188456 24,975 337 405 0
2018-05-20 09:37:22 GMT 48.524323 7.192242 24,975 348 398 0
2018-05-20 09:37:19 GMT 48.519024 7.194744 24,975 348 398 0
2018-05-20 09:37:16 GMT 48.512421 7.197172 24,975 350 396 -64
2018-05-20 09:37:13 GMT 48.509014 7.198069 25,000 353 393 -128
2018-05-20 09:37:10 GMT 48.503220 7.199073 25,000 358 390 -64
2018-05-20 09:37:07 GMT 48.496033 7.199566 25,000 0 388 -192
2018-05-20 09:37:04 GMT 48.492302 7.199442 24,975 29 373 -256
2018-05-20 09:37:01 GMT 48.485924 7.198719 25,000 6 382 -64
2018-05-20 09:36:58 GMT 48.481018 7.197806 25,000 11 378 256
2018-05-20 09:36:54 GMT 48.474976 7.196115 25,000 12 378 256
2018-05-20 09:36:51 GMT 48.469540 7.194093 25,000 16 377 192
2018-05-20 09:36:47 GMT 48.461765 7.190407 24,975 20 375 192
2018-05-20 09:36:42 GMT 48.454781 7.185926 24,975 28 374 -192
2018-05-20 09:36:39 GMT 48.449478 7.181608 24,975 42 375 -64
2018-05-20 09:36:33 GMT 48.441887 7.173494 25,000 41 370 0
2018-05-20 09:36:30 GMT 48.438492 7.169213 25,000 41 371 -64
2018-05-20 09:36:27 GMT 48.435059 7.164565 25,000 42 370 0
2018-05-20 09:36:24 GMT 48.430157 7.157737 25,000 43 372 0
2018-05-20 09:36:21 GMT 48.426498 7.152593 25,000 43 372 -64
2018-05-20 09:36:18 GMT 48.422241 7.146606 25,000 42 377 0
2018-05-20 09:36:14 GMT 48.416561 7.138728 25,000 43 372 0
2018-05-20 09:36:11 GMT 48.414688 7.136043 25,000 42 372 0
2018-05-20 09:36:08 GMT 48.410183 7.129693 25,000 42 372 0
2018-05-20 09:36:04 GMT 48.404846 7.122310 25,000 42 372 0
2018-05-20 09:36:00 GMT 48.400036 7.115671 24,975 42 373 64
2018-05-20 09:35:56 GMT 48.395473 7.109383 24,975 42 373 0
2018-05-20 09:35:53 GMT 48.391518 7.103962 24,975 42 374 64
2018-05-20 09:35:50 GMT 48.387909 7.099069 24,975 42 374 0
2018-05-20 09:35:47 GMT 48.383743 7.093295 24,975 42 374 0
2018-05-20 09:35:41 GMT 48.375870 7.082308 25,000 42 375 0
2018-05-20 09:35:37 GMT 48.371017 7.075618 25,000 42 375 0
2018-05-20 09:35:34 GMT 48.367035 7.070195 25,000 42 375 0
2018-05-20 09:35:30 GMT 48.362328 7.063631 25,000 42 375 0
2018-05-20 09:35:27 GMT 48.357861 7.057415 25,000 42 377 0
2018-05-20 09:35:20 GMT 48.348907 7.045053 25,000 42 376 0
2018-05-20 09:35:17 GMT 48.346252 7.041321 25,000 42 376 0
2018-05-20 09:35:13 GMT 48.341007 7.034069 25,000 42 377 -64
2018-05-20 09:35:09 GMT 48.335999 7.027236 25,000 42 377 0
2018-05-20 09:35:06 GMT 48.331882 7.021565 25,000 42 377 0
2018-05-20 09:35:00 GMT 48.323410 7.009856 25,000 42 377 -64
2018-05-20 09:34:57 GMT 48.319035 7.003856 25,000 42 377 0
2018-05-20 09:34:54 GMT 48.316475 7.000243 25,000 42 378 0
2018-05-20 09:34:51 GMT 48.310684 6.992234 25,000 42 378 0
2018-05-20 09:34:48 GMT 48.308670 6.989417 25,000 42 378 0
2018-05-20 09:34:44 GMT 48.302582 6.981107 25,000 42 378 0
2018-05-20 09:34:39 GMT 48.296551 6.972704 25,000 42 378 0
2018-05-20 09:34:36 GMT 48.292053 6.966529 25,000 42 378 0
2018-05-20 09:34:33 GMT 48.288822 6.962079 25,000 42 378 0
2018-05-20 09:34:30 GMT 48.284821 6.956586 25,000 42 378 0
2018-05-20 09:34:27 GMT 48.281094 6.951455 25,000 42 378 0
2018-05-20 09:34:22 GMT 48.274658 6.942585 25,000 42 378 0
2018-05-20 09:34:17 GMT 48.268066 6.933500 25,000 42 385 0
2018-05-20 09:34:14 GMT 48.263313 6.926952 25,000 42 383 0
2018-05-20 09:34:09 GMT 48.258190 6.919869 25,000 42 379 0
2018-05-20 09:34:06 GMT 48.253830 6.913781 24,975 42 380 0
2018-05-20 09:34:03 GMT 48.250076 6.908640 25,000 42 379 0
2018-05-20 09:33:59 GMT 48.245018 6.901727 25,000 42 380 0
2018-05-20 09:33:54 GMT 48.237396 6.891245 25,000 42 380 0
2018-05-20 09:33:51 GMT 48.233517 6.885898 25,000 42 381 0
2018-05-20 09:33:46 GMT 48.228516 6.878920 25,000 42 381 0
2018-05-20 09:33:43 GMT 48.224628 6.873538 25,000 42 383 0
2018-05-20 09:33:38 GMT 48.218761 6.865515 25,000 42 382 0
2018-05-20 09:33:35 GMT 48.213455 6.858145 25,000 42 382 -64
2018-05-20 09:33:31 GMT 48.209427 6.852581 25,000 42 382 -64
2018-05-20 09:33:28 GMT 48.205818 6.847590 25,000 42 382 0
2018-05-20 09:33:25 GMT 48.200867 6.840820 25,000 42 382 0
2018-05-20 09:33:22 GMT 48.196926 6.835448 25,000 42 383 0
2018-05-20 09:33:19 GMT 48.193039 6.830116 25,000 42 382 0
2018-05-20 09:33:15 GMT 48.187943 6.823160 25,000 42 382 0
2018-05-20 09:33:11 GMT 48.182964 6.816366 25,000 42 382 0
2018-05-20 09:33:08 GMT 48.179424 6.811596 25,000 42 383 0
2018-05-20 09:33:01 GMT 48.170242 6.799058 25,000 42 384 0
2018-05-20 09:32:57 GMT 48.164200 6.790889 25,000 42 385 0
2018-05-20 09:32:54 GMT 48.160950 6.786382 25,000 42 385 0
2018-05-20 09:32:51 GMT 48.156326 6.780144 25,000 42 385 0
2018-05-20 09:32:45 GMT 48.148956 6.770119 25,000 42 385 0
2018-05-20 09:32:41 GMT 48.142456 6.761398 24,975 41 396 0
2018-05-20 09:32:36 GMT 48.136318 6.753211 24,975 41 388 64
2018-05-20 09:32:30 GMT 48.128174 6.742241 24,975 41 397 0
2018-05-20 09:32:27 GMT 48.124237 6.737022 24,975 41 391 0
2018-05-20 09:32:23 GMT 48.118813 6.729760 24,975 41 395 0
2018-05-20 09:32:19 GMT 48.112289 6.721092 24,975 41 396 0
2018-05-20 09:32:15 GMT 48.108353 6.715805 24,975 41 398 0
2018-05-20 09:32:12 GMT 48.104370 6.710518 24,975 41 398 -64
2018-05-20 09:32:09 GMT 48.100388 6.705299 24,975 41 398 -64
2018-05-20 09:32:05 GMT 48.095398 6.698708 25,000 41 399 0
2018-05-20 09:32:01 GMT 48.088463 6.689617 25,000 41 398 0
2018-05-20 09:31:58 GMT 48.085007 6.685112 25,000 41 399 0
2018-05-20 09:31:55 GMT 48.080704 6.679482 25,000 41 400 0
2018-05-20 09:31:48 GMT 48.071091 6.666985 25,000 40 400 0
2018-05-20 09:31:44 GMT 48.065735 6.660118 24,975 40 401 64
2018-05-20 09:31:41 GMT 48.061554 6.654757 24,975 40 401 64
2018-05-20 09:31:38 GMT 48.056622 6.648419 24,975 40 401 0
2018-05-20 09:31:35 GMT 48.052368 6.643089 24,975 40 401 0
2018-05-20 09:31:32 GMT 48.049118 6.638969 24,975 40 401 0
2018-05-20 09:31:28 GMT 48.042328 6.630390 25,000 39 401 -64
2018-05-20 09:31:24 GMT 48.036743 6.623488 24,975 43 403 -64
2018-05-20 09:31:20 GMT 48.030552 6.615953 24,975 40 402 64
2018-05-20 09:31:17 GMT 48.026081 6.610530 25,000 40 402 64
2018-05-20 09:31:13 GMT 48.019981 6.603206 24,975 43 403 -64
2018-05-20 09:31:10 GMT 48.015514 6.597783 24,975 43 403 -64
2018-05-20 09:31:07 GMT 48.012268 6.593651 24,975 42 403 0
2018-05-20 09:31:02 GMT 48.005692 6.584614 25,000 44 403 -64
2018-05-20 09:30:58 GMT 48.000294 6.576233 24,975 49 403 -64
2018-05-20 09:30:54 GMT 47.994095 6.565430 25,000 50 403 -64
2018-05-20 09:30:51 GMT 47.991806 6.561378 25,000 50 404 -64
2018-05-20 09:30:48 GMT 47.987396 6.553415 25,000 50 403 -64
2018-05-20 09:30:44 GMT 47.982880 6.545316 25,000 50 403 128
2018-05-20 09:30:41 GMT 47.980740 6.541513 25,000 54 404 -64
2018-05-20 09:30:36 GMT 47.974922 6.531020 25,000 52 404 0
2018-05-20 09:30:31 GMT 47.968231 6.518257 25,000 54 404 -64
2018-05-20 09:30:28 GMT 47.965073 6.511734 25,000 57 405 -64
2018-05-20 09:30:21 GMT 47.957382 6.493263 25,000 75 407 0
2018-05-20 09:30:17 GMT 47.954578 6.485384 25,000 63 406 -64
2018-05-20 09:30:12 GMT 47.950527 6.472426 25,000 66 406 0
2018-05-20 09:30:09 GMT 47.947815 6.462364 25,000 69 406 64
2018-05-20 09:30:06 GMT 47.946571 6.457355 25,000 71 406 0
2018-05-20 09:30:03 GMT 47.944153 6.445885 25,000 76 406 0
2018-05-20 09:30:00 GMT 47.942734 6.438057 25,000 76 406 0
2018-05-20 09:29:57 GMT 47.942093 6.434280 25,000 77 406 0
2018-05-20 09:29:53 GMT 47.940426 6.421931 25,000 82 407 0
2018-05-20 09:29:49 GMT 47.939171 6.409396 25,000 88 410 0
2018-05-20 09:29:45 GMT 47.938568 6.400497 25,000 85 409 0
2018-05-20 09:29:41 GMT 47.938099 6.388972 25,000 106 424 -128
2018-05-20 09:29:35 GMT 47.938156 6.372894 25,000 94 413 0
2018-05-20 09:29:31 GMT 47.938705 6.360397 25,000 96 415 64
2018-05-20 09:29:28 GMT 47.939484 6.350166 24,975 100 418 128
2018-05-20 09:29:25 GMT 47.940033 6.344536 24,975 104 423 0
2018-05-20 09:29:21 GMT 47.941589 6.332351 24,975 103 421 0
2018-05-20 09:29:17 GMT 47.943787 6.319405 24,975 106 424 -128
2018-05-20 09:29:14 GMT 47.945114 6.312675 24,975 111 434 0
2018-05-20 09:29:11 GMT 47.947269 6.303194 24,975 110 430 0
2018-05-20 09:29:08 GMT 47.948730 6.297089 24,975 111 434 0
2018-05-20 09:29:04 GMT 47.952065 6.284039 24,975 110 436 -64
2018-05-20 09:28:58 GMT 47.957153 6.264336 24,975 110 439 0
2018-05-20 09:28:55 GMT 47.958256 6.260094 24,975 110 444 -64
2018-05-20 09:28:52 GMT 47.960129 6.252663 24,975 110 442 0
2018-05-20 09:28:49 GMT 47.963242 6.240646 25,000 110 446 0
2018-05-20 09:28:46 GMT 47.964706 6.234947 25,000 110 447 0
2018-05-20 09:28:42 GMT 47.967636 6.223412 25,000 110 442 0
2018-05-20 09:28:38 GMT 47.970566 6.211945 25,000 110 446 0
2018-05-20 09:28:35 GMT 47.973358 6.201096 25,000 110 444 -64
2018-05-20 09:28:32 GMT 47.975372 6.193062 25,000 110 442 0
2018-05-20 09:28:27 GMT 47.979630 6.176514 25,000 110 441 0
2018-05-20 09:28:24 GMT 47.981346 6.169739 25,000 110 441 -64
2018-05-20 09:28:16 GMT 47.986839 6.147837 25,000 110 439 -64
2018-05-20 09:28:12 GMT 47.989929 6.135658 25,000 110 439 -64
2018-05-20 09:28:08 GMT 47.993496 6.121498 25,025 110 445 -576
2018-05-20 09:28:04 GMT 47.995377 6.114098 25,025 110 443 -256
2018-05-20 09:28:01 GMT 47.997543 6.105511 25,025 110 444 -448
2018-05-20 09:27:57 GMT 48.000687 6.093224 25,075 110 445 -576
2018-05-20 09:27:53 GMT 48.003269 6.083257 25,125 110 447 -896
2018-05-20 09:27:50 GMT 48.005310 6.075165 25,325 110 449 -1536
2018-05-20 09:27:45 GMT 48.009277 6.059523 25,275 110 450 -2048
2018-05-20 09:27:41 GMT 48.012131 6.048180 25,450 110 451 -1984
2018-05-20 09:27:36 GMT 48.015793 6.033677 25,650 110 453 -1728
2018-05-20 09:27:33 GMT 48.017670 6.026070 25,750 110 453 -1664
2018-05-20 09:27:30 GMT 48.020370 6.015221 25,800 110 455 -1408
2018-05-20 09:27:25 GMT 48.023895 6.001141 25,900 110 456 -1344
2018-05-20 09:27:22 GMT 48.026035 5.992619 25,950 110 458 -1280
2018-05-20 09:27:18 GMT 48.028931 5.981026 26,100 110 471 -1600
2018-05-20 09:27:14 GMT 48.032040 5.968886 26,150 110 468 -1472
2018-05-20 09:27:10 GMT 48.036045 5.953040 26,250 110 466 -1408
2018-05-20 09:27:06 GMT 48.038464 5.943463 26,325 110 467 -1408
2018-05-20 09:27:01 GMT 48.041958 5.929518 26,425 110 469 -1536
2018-05-20 09:26:55 GMT 48.047379 5.907623 26,625 110 473 -1664
2018-05-20 09:26:51 GMT 48.050243 5.896278 26,725 110 474 -1600
2018-05-20 09:26:48 GMT 48.052616 5.886770 26,825 110 478 -1600
2018-05-20 09:26:41 GMT 48.057541 5.867386 27,075 111 479 -1856
2018-05-20 09:26:38 GMT 48.060699 5.855026 27,200 110 480 -1920
2018-05-20 09:26:32 GMT 48.064346 5.840783 27,275 110 482 -2304
2018-05-20 09:26:29 GMT 48.066490 5.832402 27,525 110 482 -2560
2018-05-20 09:26:26 GMT 48.069656 5.819937 27,775 110 483 -2688
2018-05-20 09:26:21 GMT 48.073425 5.804970 27,750 110 484 -2624
2018-05-20 09:26:18 GMT 48.075054 5.798387 27,850 110 484 -2752
2018-05-20 09:26:15 GMT 48.077755 5.787400 28,000 110 484 -2688
2018-05-20 09:26:11 GMT 48.081345 5.773041 28,675 110 488 0
2018-05-20 09:26:08 GMT 48.083176 5.765556 28,325 110 484 -2624
2018-05-20 09:26:04 GMT 48.086506 5.752047 28,475 110 484 -2112
2018-05-20 09:25:59 GMT 48.089951 5.738297 28,650 110 484 -1984
2018-05-20 09:25:56 GMT 48.092651 5.727609 28,750 110 486 -1408
2018-05-20 09:25:52 GMT 48.095772 5.715074 28,850 110 487 -896
2018-05-20 09:25:48 GMT 48.098969 5.702179 28,925 110 488 -640
2018-05-20 09:25:40 GMT 48.106010 5.673734 28,975 110 489 0
2018-05-20 09:25:35 GMT 48.109818 5.658577 29,000 110 488 0
2018-05-20 09:25:30 GMT 48.112976 5.645874 28,975 110 488 0
2018-05-20 09:25:27 GMT 48.115402 5.636124 28,975 110 488 0
2018-05-20 09:25:22 GMT 48.119110 5.621223 29,000 110 489 0
2018-05-20 09:25:19 GMT 48.121140 5.613028 29,000 110 489 0
2018-05-20 09:25:13 GMT 48.126617 5.590874 29,000 110 488 64
2018-05-20 09:25:10 GMT 48.128868 5.581689 29,000 110 489 -64
2018-05-20 09:25:05 GMT 48.132339 5.567734 29,000 110 489 0
2018-05-20 09:24:58 GMT 48.137947 5.544927 29,000 110 489 -64
2018-05-20 09:24:55 GMT 48.140041 5.536405 29,000 110 489 0
2018-05-20 09:24:52 GMT 48.143440 5.522461 29,000 110 488 64
2018-05-20 09:24:49 GMT 48.145023 5.516123 29,000 110 488 64
2018-05-20 09:24:45 GMT 48.148041 5.503738 28,975 110 488 0
2018-05-20 09:24:42 GMT 48.150375 5.494220 28,975 110 489 -64
2018-05-20 09:24:39 GMT 48.153122 5.483139 28,975 110 488 0
2018-05-20 09:24:33 GMT 48.157425 5.465767 29,000 110 488 -64
2018-05-20 09:24:30 GMT 48.159714 5.456566 29,000 110 488 0
2018-05-20 09:24:27 GMT 48.163010 5.443303 29,000 110 487 0
2018-05-20 09:24:23 GMT 48.165504 5.433173 29,000 110 488 0
2018-05-20 09:24:18 GMT 48.169418 5.417387 29,000 110 487 0
2018-05-20 09:24:14 GMT 48.172581 5.404406 29,000 110 487 0
2018-05-20 09:24:08 GMT 48.176769 5.387348 29,000 110 488 0
2018-05-20 09:24:02 GMT 48.181286 5.368990 29,000 110 487 -64
2018-05-20 09:23:59 GMT 48.184174 5.357281 29,000 110 487 0
2018-05-20 09:23:56 GMT 48.187042 5.345623 29,000 110 487 0
2018-05-20 09:23:53 GMT 48.188599 5.339285 29,000 110 487 0
2018-05-20 09:23:50 GMT 48.190643 5.331043 29,000 110 487 0
2018-05-20 09:23:45 GMT 48.195812 5.310227 29,000 110 486 0
2018-05-20 09:23:40 GMT 48.198853 5.297875 29,000 110 487 0
2018-05-20 09:23:37 GMT 48.201233 5.288086 29,000 110 487 0
2018-05-20 09:23:31 GMT 48.206543 5.266254 29,000 110 487 0
2018-05-20 09:23:24 GMT 48.211407 5.246333 29,000 109 487 0
2018-05-20 09:23:17 GMT 48.216614 5.224844 29,000 110 486 0
2018-05-20 09:23:14 GMT 48.219040 5.214985 29,000 110 486 0
2018-05-20 09:23:10 GMT 48.221882 5.203327 29,000 109 485 0
2018-05-20 09:23:07 GMT 48.224899 5.191040 29,000 110 486 -64
2018-05-20 09:23:00 GMT 48.229889 5.170828 29,000 109 484 64
2018-05-20 09:22:53 GMT 48.234879 5.150264 28,975 110 485 -64
2018-05-20 09:22:49 GMT 48.238827 5.133795 28,975 109 485 0
2018-05-20 09:22:45 GMT 48.240921 5.125267 28,975 109 486 -64
2018-05-20 09:22:39 GMT 48.245949 5.104450 29,000 110 485 0
2018-05-20 09:22:35 GMT 48.248932 5.092093 29,000 110 485 0
2018-05-20 09:22:32 GMT 48.252182 5.078853 29,000 110 485 0
2018-05-20 09:22:26 GMT 48.256805 5.059908 29,000 110 485 0
2018-05-20 09:22:23 GMT 48.258469 5.052988 29,000 110 485 0
2018-05-20 09:22:20 GMT 48.260147 5.046049 29,000 109 484 0
2018-05-20 09:22:17 GMT 48.262241 5.037521 29,000 109 483 -64
2018-05-20 09:22:13 GMT 48.265266 5.024944 29,000 110 485 0
2018-05-20 09:22:09 GMT 48.268570 5.011385 29,000 109 484 0
2018-05-20 09:22:06 GMT 48.271271 5.000329 29,000 109 483 -64
2018-05-20 09:22:03 GMT 48.273228 4.992130 29,000 109 484 0
2018-05-20 09:21:56 GMT 48.279236 4.967229 28,975 109 484 64
2018-05-20 09:21:49 GMT 48.283813 4.948284 29,000 109 483 0
2018-05-20 09:21:46 GMT 48.286915 4.935391 29,000 109 484 -64
2018-05-20 09:21:42 GMT 48.289288 4.925633 28,975 109 484 0
2018-05-20 09:21:34 GMT 48.295341 4.900336 29,000 109 484 -64
2018-05-20 09:21:24 GMT 48.303177 4.867859 29,000 109 484 -64
2018-05-20 09:21:21 GMT 48.305302 4.859065 29,000 109 484 -64
2018-05-20 09:21:18 GMT 48.307491 4.849886 29,000 109 484 -64
2018-05-20 09:21:13 GMT 48.312195 4.829970 29,000 109 484 0
2018-05-20 09:21:09 GMT 48.314529 4.820181 29,000 109 484 0
2018-05-20 09:21:04 GMT 48.318237 4.804758 29,000 109 483 -64
2018-05-20 09:21:01 GMT 48.319977 4.797504 28,975 109 483 -64
2018-05-20 09:20:53 GMT 48.327255 4.767221 29,000 109 483 0
2018-05-20 09:20:50 GMT 48.328766 4.760883 29,000 109 483 0
2018-05-20 09:20:40 GMT 48.336044 4.730600 29,000 109 483 0
2018-05-20 09:20:32 GMT 48.342316 4.704402 29,000 109 483 0
2018-05-20 09:20:29 GMT 48.344788 4.694050 29,000 109 483 0
2018-05-20 09:20:20 GMT 48.351250 4.666877 29,000 109 482 0
2018-05-20 09:20:13 GMT 48.356510 4.644832 29,000 109 483 0
2018-05-20 09:20:10 GMT 48.359024 4.634424 29,000 109 482 0
2018-05-20 09:20:07 GMT 48.360992 4.626230 29,000 109 482 0
2018-05-20 09:20:00 GMT 48.367451 4.599079 29,000 109 482 0
2018-05-20 09:19:49 GMT 48.374664 4.568795 29,000 109 481 0
2018-05-20 09:19:44 GMT 48.378204 4.554050 29,000 109 481 0
2018-05-20 09:19:38 GMT 48.383278 4.532583 28,975 109 482 0
2018-05-20 09:19:28 GMT 48.391022 4.499817 29,000 109 482 -64
2018-05-20 09:19:25 GMT 48.392258 4.494746 29,000 109 482 0
2018-05-20 09:19:16 GMT 48.399712 4.463196 29,000 109 482 0
2018-05-20 09:19:06 GMT 48.406460 4.434501 29,000 109 482 0
2018-05-20 09:19:03 GMT 48.408833 4.424455 29,000 109 481 0
2018-05-20 09:18:59 GMT 48.412720 4.407982 29,000 109 481 0
2018-05-20 09:18:54 GMT 48.415771 4.395037 29,000 109 482 -64
2018-05-20 09:18:45 GMT 48.422058 4.368192 29,000 109 481 0
2018-05-20 09:18:42 GMT 48.424210 4.359037 29,000 109 481 0
2018-05-20 09:18:33 GMT 48.431973 4.325867 29,000 109 481 0
2018-05-20 09:18:23 GMT 48.438534 4.297389 29,000 109 481 0
2018-05-20 09:18:13 GMT 48.445816 4.265442 29,000 108 480 0
2018-05-20 09:18:10 GMT 48.448792 4.252484 29,000 108 480 0
2018-05-20 09:18:03 GMT 48.453106 4.233567 29,000 108 480 0
2018-05-20 09:17:55 GMT 48.458862 4.207975 29,000 108 480 0
2018-05-20 09:17:52 GMT 48.460693 4.199735 29,000 108 480 0
2018-05-20 09:17:49 GMT 48.462833 4.190272 29,000 108 480 -64
2018-05-20 09:17:43 GMT 48.467834 4.167833 29,000 108 480 0
2018-05-20 09:17:39 GMT 48.470425 4.156446 29,000 108 480 0
2018-05-20 09:17:30 GMT 48.476578 4.128676 29,000 108 479 0
2018-05-20 09:17:20 GMT 48.483902 4.095436 29,000 108 479 64
2018-05-20 09:17:08 GMT 48.491959 4.059730 28,975 110 480 0
2018-05-20 09:17:01 GMT 48.497005 4.039788 29,000 111 481 0
2018-05-20 09:16:58 GMT 48.500496 4.026706 28,975 111 481 0
2018-05-20 09:16:48 GMT 48.508392 3.995854 29,000 108 480 0
2018-05-20 09:16:44 GMT 48.510689 3.986086 29,000 108 480 0
2018-05-20 09:16:38 GMT 48.515064 3.965486 28,975 106 479 0
2018-05-20 09:16:35 GMT 48.516815 3.956839 28,975 106 478 0
2018-05-20 09:16:25 GMT 48.523399 3.921613 29,000 105 478 0
2018-05-20 09:16:18 GMT 48.527122 3.901737 29,000 105 478 0
2018-05-20 09:16:15 GMT 48.529037 3.891484 29,000 105 478 0
2018-05-20 09:16:07 GMT 48.533875 3.865164 28,975 105 478 0
2018-05-20 09:16:04 GMT 48.535172 3.858173 29,000 105 478 0
2018-05-20 09:16:00 GMT 48.538193 3.841764 29,000 105 477 64
2018-05-20 09:15:57 GMT 48.539520 3.834721 29,000 105 479 0
2018-05-20 09:15:52 GMT 48.542297 3.819628 29,000 105 478 0
2018-05-20 09:15:49 GMT 48.543880 3.810955 29,000 105 478 0
2018-05-20 09:15:41 GMT 48.548721 3.784649 29,000 105 478 0
2018-05-20 09:15:37 GMT 48.551472 3.769612 29,000 105 478 0
2018-05-20 09:15:33 GMT 48.554306 3.754226 29,000 105 477 0
2018-05-20 09:15:29 GMT 48.556137 3.744296 29,000 105 477 0
2018-05-20 09:15:22 GMT 48.560410 3.720896 29,000 105 477 0
2018-05-20 09:15:16 GMT 48.563248 3.705573 29,000 105 477 64
2018-05-20 09:15:12 GMT 48.566757 3.686336 29,000 105 477 0
2018-05-20 09:15:09 GMT 48.568275 3.677962 28,975 105 477 64
2018-05-20 09:15:02 GMT 48.571838 3.658447 28,975 105 478 0
2018-05-20 09:14:59 GMT 48.574219 3.645278 28,975 105 477 64
2018-05-20 09:14:52 GMT 48.578331 3.622814 28,975 105 478 64
2018-05-20 09:14:49 GMT 48.579308 3.617321 28,975 105 479 128
2018-05-20 09:14:44 GMT 48.582474 3.599974 28,975 105 480 -128
2018-05-20 09:14:38 GMT 48.586075 3.580275 29,000 105 481 -704
2018-05-20 09:14:33 GMT 48.589050 3.563796 29,050 105 482 -832
2018-05-20 09:14:29 GMT 48.590992 3.553138 29,250 105 481 -1216
2018-05-20 09:14:26 GMT 48.592716 3.543741 30,375 105 482 0
2018-05-20 09:14:20 GMT 48.596603 3.522386 29,500 105 481 -1280
2018-05-20 09:14:17 GMT 48.598953 3.509409 29,475 105 480 -1408
2018-05-20 09:14:12 GMT 48.601730 3.494145 29,550 105 481 -1216
2018-05-20 09:14:09 GMT 48.603104 3.486399 29,500 105 481 -1216
2018-05-20 09:14:06 GMT 48.604912 3.476378 29,650 105 480 -1408
2018-05-20 09:14:03 GMT 48.607224 3.463722 29,650 105 480 -1408
2018-05-20 09:13:58 GMT 48.609615 3.450430 29,725 105 482 -1216
2018-05-20 09:13:55 GMT 48.611298 3.441045 29,800 105 481 -1216
2018-05-20 09:13:52 GMT 48.612873 3.432288 30,025 105 481 -1216
2018-05-20 09:13:45 GMT 48.617714 3.405400 30,025 105 481 -1280
2018-05-20 09:13:37 GMT 48.621231 3.385972 30,300 105 481 -1216
2018-05-20 09:13:34 GMT 48.623932 3.370760 30,225 105 480 -1280
2018-05-20 09:13:30 GMT 48.625301 3.363334 30,350 105 480 -1344
2018-05-20 09:13:27 GMT 48.627182 3.353013 30,425 105 480 -1408
2018-05-20 09:13:23 GMT 48.630142 3.336519 30,800 105 480 -1408
2018-05-20 09:13:20 GMT 48.631622 3.328083 30,625 105 480 -1408
2018-05-20 09:13:14 GMT 48.635330 3.307448 30,675 105 479 -1344
2018-05-20 09:13:09 GMT 48.637939 3.292870 30,775 105 479 -1152
2018-05-20 09:13:03 GMT 48.641037 3.275444 30,900 105 479 -768
2018-05-20 09:12:59 GMT 48.643410 3.262217 30,950 105 481 -320
2018-05-20 09:12:54 GMT 48.646820 3.243150 31,000 104 480 0
2018-05-20 09:12:49 GMT 48.649696 3.226945 30,975 105 482 -64
2018-05-20 09:12:44 GMT 48.652721 3.210032 30,975 105 482 0
2018-05-20 09:12:39 GMT 48.655746 3.193118 31,000 105 482 0
2018-05-20 09:12:36 GMT 48.657394 3.183711 30,975 105 482 0
2018-05-20 09:12:33 GMT 48.658585 3.177232 31,000 105 482 0
2018-05-20 09:12:29 GMT 48.661606 3.159978 31,000 104 482 0
2018-05-20 09:12:26 GMT 48.662750 3.153499 31,000 104 482 0
2018-05-20 09:12:22 GMT 48.665104 3.140211 31,000 104 481 0
2018-05-20 09:12:19 GMT 48.666641 3.131456 31,000 104 480 0
2018-05-20 09:12:16 GMT 48.668877 3.118816 31,000 104 480 0
2018-05-20 09:12:13 GMT 48.670624 3.108708 31,000 104 480 0
2018-05-20 09:12:09 GMT 48.672504 3.098072 31,000 104 480 0
2018-05-20 09:12:05 GMT 48.674652 3.086031 31,000 105 477 -64
2018-05-20 09:12:01 GMT 48.676743 3.074076 31,000 104 478 0
2018-05-20 09:11:56 GMT 48.679779 3.056946 31,000 104 479 0
2018-05-20 09:11:51 GMT 48.682610 3.041117 31,000 104 478 0
2018-05-20 09:11:48 GMT 48.685410 3.025325 31,000 104 478 0
2018-05-20 09:11:44 GMT 48.686565 3.018566 31,000 105 477 -64
2018-05-20 09:11:40 GMT 48.689163 3.004056 31,000 105 476 -64
2018-05-20 09:11:37 GMT 48.690521 2.996304 31,000 105 476 0
2018-05-20 09:11:34 GMT 48.692276 2.986380 31,000 105 477 0
2018-05-20 09:11:31 GMT 48.694012 2.976717 31,000 105 476 0
2018-05-20 09:11:28 GMT 48.696388 2.963562 31,000 105 476 0
2018-05-20 09:11:24 GMT 48.697998 2.954266 31,000 104 476 0
2018-05-20 09:11:20 GMT 48.700378 2.940744 31,000 104 474 0
2018-05-20 09:11:17 GMT 48.702164 2.930814 31,000 104 475 0
2018-05-20 09:11:14 GMT 48.703930 2.920556 31,000 104 474 0
2018-05-20 09:11:11 GMT 48.706009 2.908701 31,000 104 474 0
2018-05-20 09:11:06 GMT 48.708481 2.894616 31,000 104 473 0
2018-05-20 09:11:03 GMT 48.710167 2.885068 31,000 104 473 0
2018-05-20 09:10:59 GMT 48.712818 2.869745 31,000 104 472 0
2018-05-20 09:10:56 GMT 48.713940 2.863312 31,000 104 472 0
2018-05-20 09:10:53 GMT 48.715576 2.854121 31,000 104 472 0
2018-05-20 09:10:50 GMT 48.717289 2.844230 31,000 104 472 0
2018-05-20 09:10:46 GMT 48.719524 2.831437 31,000 104 471 0
2018-05-20 09:10:43 GMT 48.721199 2.821896 30,975 104 471 0
2018-05-20 09:10:40 GMT 48.723202 2.810476 31,000 104 470 0
2018-05-20 09:10:36 GMT 48.725620 2.796454 30,975 104 470 0
2018-05-20 09:10:31 GMT 48.728394 2.780597 31,000 104 470 0
2018-05-20 09:10:28 GMT 48.729019 2.777084 31,000 104 470 0
2018-05-20 09:10:25 GMT 48.731140 2.764752 31,000 104 469 0
2018-05-20 09:10:22 GMT 48.732788 2.755174 31,000 104 465 0
2018-05-20 09:10:19 GMT 48.734482 2.745385 31,000 104 469 0
2018-05-20 09:10:14 GMT 48.737309 2.728874 31,000 104 468 0
2018-05-20 09:10:11 GMT 48.738983 2.719405 31,000 104 465 0
2018-05-20 09:10:08 GMT 48.740433 2.710806 31,000 104 468 0
2018-05-20 09:10:01 GMT 48.744003 2.690242 30,975 104 468 -64
2018-05-20 09:09:58 GMT 48.745972 2.678903 30,975 104 468 0
2018-05-20 09:09:53 GMT 48.748947 2.661508 30,975 104 467 -64
2018-05-20 09:09:49 GMT 48.750916 2.650100 31,000 104 467 -64
2018-05-20 09:09:46 GMT 48.752018 2.643802 31,000 104 466 0
2018-05-20 09:09:42 GMT 48.755043 2.626455 31,000 104 467 0
2018-05-20 09:09:36 GMT 48.757919 2.609746 31,000 104 466 0
2018-05-20 09:09:31 GMT 48.760483 2.594886 31,000 104 464 0
2018-05-20 09:09:28 GMT 48.762074 2.585473 31,000 104 465 0
2018-05-20 09:09:25 GMT 48.763889 2.575065 31,000 104 465 0
2018-05-20 09:09:21 GMT 48.766068 2.562138 30,975 104 464 0
2018-05-20 09:09:15 GMT 48.769547 2.541997 30,975 104 464 0
2018-05-20 09:09:12 GMT 48.770828 2.534461 30,975 104 464 0
2018-05-20 09:09:09 GMT 48.772614 2.524109 30,975 104 464 0
2018-05-20 09:09:05 GMT 48.774734 2.511532 30,975 104 464 0
2018-05-20 09:09:02 GMT 48.776367 2.502066 30,975 104 464 -64
2018-05-20 09:08:58 GMT 48.778290 2.490727 31,000 104 463 0
2018-05-20 09:08:54 GMT 48.780182 2.479441 30,975 104 464 0
2018-05-20 09:08:51 GMT 48.782318 2.466853 31,000 104 463 0
2018-05-20 09:08:47 GMT 48.784046 2.456818 31,000 104 464 0
2018-05-20 09:08:44 GMT 48.785488 2.448289 31,000 104 463 0
2018-05-20 09:08:40 GMT 48.787956 2.433833 31,000 104 463 0
2018-05-20 09:08:37 GMT 48.789688 2.423471 30,975 104 463 0
2018-05-20 09:08:34 GMT 48.791153 2.415020 31,000 104 463 0
2018-05-20 09:08:31 GMT 48.792709 2.405865 31,000 104 463 0
2018-05-20 09:08:27 GMT 48.794907 2.393048 30,975 104 463 0
2018-05-20 09:08:22 GMT 48.797699 2.376427 30,975 104 463 0
2018-05-20 09:08:18 GMT 48.799393 2.366356 30,975 104 463 0
2018-05-20 09:08:14 GMT 48.802048 2.350652 30,975 104 463 0
2018-05-20 09:08:09 GMT 48.804810 2.334306 30,975 104 463 0
2018-05-20 09:08:06 GMT 48.806442 2.324946 30,975 104 463 0
2018-05-20 09:08:03 GMT 48.807507 2.318621 31,000 104 463 -64
2018-05-20 09:08:00 GMT 48.809231 2.308285 31,000 104 463 0
2018-05-20 09:07:57 GMT 48.810745 2.299171 31,000 104 463 0
2018-05-20 09:07:52 GMT 48.813652 2.281904 31,000 104 463 0
2018-05-20 09:07:48 GMT 48.815235 2.272508 31,000 104 463 0
2018-05-20 09:07:45 GMT 48.816833 2.263113 31,000 104 463 0
2018-05-20 09:07:42 GMT 48.819031 2.250225 31,000 104 463 0
2018-05-20 09:07:38 GMT 48.820862 2.239239 30,975 104 463 0
2018-05-20 09:07:35 GMT 48.822403 2.230152 30,975 104 463 0
2018-05-20 09:07:32 GMT 48.824524 2.217619 30,975 104 463 0
2018-05-20 09:07:28 GMT 48.826546 2.205650 31,000 104 463 0
2018-05-20 09:07:25 GMT 48.827866 2.197829 31,000 104 463 -64
2018-05-20 09:07:21 GMT 48.829788 2.186491 31,000 104 464 0
2018-05-20 09:07:18 GMT 48.831249 2.177678 31,000 104 464 0
2018-05-20 09:07:14 GMT 48.833763 2.162933 31,000 104 464 0
2018-05-20 09:07:11 GMT 48.835300 2.153754 31,000 104 464 0
2018-05-20 09:07:06 GMT 48.838093 2.137419 31,000 104 464 0
2018-05-20 09:07:02 GMT 48.840271 2.124516 31,000 104 464 -64
2018-05-20 09:06:59 GMT 48.841911 2.115085 31,000 104 464 0
2018-05-20 09:06:55 GMT 48.843796 2.104093 31,000 103 455 0
2018-05-20 09:06:52 GMT 48.845215 2.095859 31,000 104 464 0
2018-05-20 09:06:49 GMT 48.847275 2.083952 31,000 104 463 0
2018-05-20 09:06:46 GMT 48.848923 2.074162 31,000 104 464 0
2018-05-20 09:06:43 GMT 48.850475 2.065068 31,000 104 463 0
2018-05-20 09:06:40 GMT 48.852200 2.055022 31,000 104 463 -64
2018-05-20 09:06:37 GMT 48.853268 2.048733 31,000 104 463 0
2018-05-20 09:06:34 GMT 48.855240 2.037400 31,000 104 462 0
2018-05-20 09:06:31 GMT 48.857224 2.025749 31,000 104 463 0
2018-05-20 09:06:27 GMT 48.858902 2.015991 31,000 104 463 0
2018-05-20 09:06:21 GMT 48.862106 1.997188 31,000 103 455 0
2018-05-20 09:06:18 GMT 48.863602 1.988092 31,000 104 462 0
2018-05-20 09:06:15 GMT 48.865219 1.978384 31,000 103 461 -64
2018-05-20 09:06:11 GMT 48.867283 1.966119 31,000 103 459 -64
2018-05-20 09:06:05 GMT 48.870346 1.947327 31,000 103 460 -64
2018-05-20 09:06:02 GMT 48.871841 1.937930 31,000 103 457 -64
2018-05-20 09:05:59 GMT 48.873230 1.929157 31,000 95 443 0
2018-05-20 09:05:55 GMT 48.875244 1.916058 31,000 103 456 -64
2018-05-20 09:05:50 GMT 48.877567 1.901068 31,000 103 456 0
2018-05-20 09:05:43 GMT 48.881245 1.877795 31,000 103 455 0
2018-05-20 09:05:40 GMT 48.883343 1.865146 30,975 58 416 64
2018-05-20 09:05:35 GMT 48.885948 1.849462 30,975 102 451 -64
2018-05-20 09:05:30 GMT 48.887669 1.838042 31,000 97 446 0
2018-05-20 09:05:26 GMT 48.889252 1.824092 31,000 96 444 0
2018-05-20 09:05:22 GMT 48.889938 1.815420 30,975 94 443 0
2018-05-20 09:05:19 GMT 48.890396 1.804645 30,975 91 440 -128
2018-05-20 09:05:16 GMT 48.890488 1.792321 31,000 85 434 0
2018-05-20 09:05:13 GMT 48.890305 1.785630 31,000 86 434 0
2018-05-20 09:05:09 GMT 48.889526 1.772602 31,000 80 430 0
2018-05-20 09:05:06 GMT 48.888649 1.763667 31,000 79 429 0
2018-05-20 09:05:03 GMT 48.887856 1.757162 30,975 71 421 0
2018-05-20 09:04:59 GMT 48.886135 1.746103 31,000 73 424 -64
2018-05-20 09:04:56 GMT 48.883987 1.734995 31,000 69 421 64
2018-05-20 09:04:53 GMT 48.881432 1.724492 30,975 65 418 128
2018-05-20 09:04:50 GMT 48.879913 1.718727 30,975 66 420 64
2018-05-20 09:04:46 GMT 48.876732 1.708374 30,975 53 415 128
2018-05-20 09:04:43 GMT 48.873890 1.700062 30,975 59 416 0
2018-05-20 09:04:40 GMT 48.870987 1.692528 30,975 57 416 64
2018-05-20 09:04:36 GMT 48.866867 1.683021 30,975 53 415 128
2018-05-20 09:04:33 GMT 48.863419 1.675704 30,975 52 415 64
2018-05-20 09:04:29 GMT 48.859085 1.667527 30,950 48 415 64
2018-05-20 09:04:25 GMT 48.852898 1.657201 30,975 45 416 -64
2018-05-20 09:04:19 GMT 48.845261 1.646118 30,975 35 418 -64
2018-05-20 09:04:14 GMT 48.838440 1.637526 30,950 24 425 960
2018-05-20 09:04:11 GMT 48.833809 1.632193 31,000 36 418 -64
2018-05-20 09:04:08 GMT 48.829529 1.627711 31,000 34 418 64
2018-05-20 09:04:05 GMT 48.822876 1.621188 30,975 30 420 320
2018-05-20 09:04:02 GMT 48.818493 1.617303 30,950 28 422 576
2018-05-20 09:03:59 GMT 48.811615 1.611680 30,925 26 423 704
2018-05-20 09:03:54 GMT 48.804760 1.606678 30,850 23 425 1024
2018-05-20 09:03:51 GMT 48.798615 1.602631 30,800 21 426 1280
2018-05-20 09:03:47 GMT 48.792145 1.598944 30,725 19 429 1536
2018-05-20 09:03:43 GMT 48.782730 1.594215 30,600 16 431 1920
2018-05-20 09:03:38 GMT 48.775200 1.591066 30,450 13 434 2176
2018-05-20 09:03:34 GMT 48.766960 1.588319 30,325 10 438 2048
2018-05-20 09:03:31 GMT 48.761189 1.586729 30,125 7 441 1536
2018-05-20 09:03:28 GMT 48.755173 1.585341 30,125 6 441 1408
2018-05-20 09:03:25 GMT 48.748058 1.584200 30,000 3 443 832
2018-05-20 09:03:22 GMT 48.741943 1.583510 30,000 1 445 256
2018-05-20 09:03:18 GMT 48.734116 1.583228 30,000 355 448 0
2018-05-20 09:03:15 GMT 48.727901 1.583332 30,000 354 449 0
2018-05-20 09:03:11 GMT 48.719662 1.584055 30,000 355 449 0
2018-05-20 09:03:08 GMT 48.713654 1.584919 30,000 354 449 0
2018-05-20 09:03:00 GMT 48.698204 1.588464 30,000 345 456 64
2018-05-20 09:02:57 GMT 48.690628 1.590905 30,000 346 454 0
2018-05-20 09:02:53 GMT 48.682526 1.594144 30,000 343 457 0
2018-05-20 09:02:50 GMT 48.677067 1.596704 30,000 341 458 0
2018-05-20 09:02:47 GMT 48.670830 1.599812 30,000 335 462 0
2018-05-20 09:02:44 GMT 48.665104 1.603137 30,000 337 461 0
2018-05-20 09:02:40 GMT 48.655289 1.609356 30,000 336 462 0
2018-05-20 09:02:37 GMT 48.651604 1.612027 30,000 333 464 0
2018-05-20 09:02:34 GMT 48.645691 1.616508 30,000 333 464 0
2018-05-20 09:02:29 GMT 48.635010 1.625624 30,000 328 467 0
2018-05-20 09:02:26 GMT 48.631714 1.628723 30,000 328 468 0
2018-05-20 09:02:23 GMT 48.625809 1.634709 30,000 317 475 64
2018-05-20 09:02:20 GMT 48.619251 1.641806 30,000 323 471 64
2018-05-20 09:02:16 GMT 48.613243 1.648889 30,000 321 472 0
2018-05-20 09:02:09 GMT 48.600906 1.665203 29,975 316 476 0
2018-05-20 09:02:05 GMT 48.594254 1.675270 29,975 313 477 0
2018-05-20 09:02:00 GMT 48.588409 1.684852 29,975 308 480 0
2018-05-20 09:01:57 GMT 48.582848 1.694786 29,975 308 480 0
2018-05-20 09:01:54 GMT 48.578609 1.702953 29,975 305 482 0
2018-05-20 09:01:48 GMT 48.572746 1.715168 30,000 303 483 64
2018-05-20 09:01:45 GMT 48.568130 1.725910 29,975 303 483 64
2018-05-20 09:01:42 GMT 48.564087 1.735984 29,975 301 484 0
2018-05-20 09:01:39 GMT 48.561665 1.742489 29,975 296 487 64
2018-05-20 09:01:35 GMT 48.556732 1.756897 29,975 296 486 64
2018-05-20 09:01:28 GMT 48.551189 1.775810 29,975 290 489 0
2018-05-20 09:01:25 GMT 48.548767 1.785349 29,975 288 490 0
2018-05-20 09:01:22 GMT 48.546677 1.794385 29,975 288 490 0
2018-05-20 09:01:18 GMT 48.543594 1.809716 29,975 285 491 -64
2018-05-20 09:01:14 GMT 48.541042 1.825682 29,975 282 493 -64
2018-05-20 09:01:08 GMT 48.538761 1.843896 30,000 279 494 64
2018-05-20 09:01:05 GMT 48.537971 1.852064 30,000 278 494 0
2018-05-20 09:01:02 GMT 48.536713 1.865724 30,000 278 494 0
2018-05-20 09:00:59 GMT 48.535873 1.874904 30,000 278 494 0
2018-05-20 09:00:56 GMT 48.535221 1.881770 30,000 278 494 0
2018-05-20 09:00:52 GMT 48.533688 1.899117 30,000 278 493 0
2018-05-20 09:00:46 GMT 48.531826 1.919499 30,000 278 492 0
2018-05-20 09:00:42 GMT 48.530895 1.930052 30,000 278 492 0
2018-05-20 09:00:38 GMT 48.529633 1.943946 30,000 278 492 0
2018-05-20 09:00:34 GMT 48.528168 1.959862 30,000 278 491 0
2018-05-20 09:00:30 GMT 48.527122 1.971395 30,000 278 490 0
2018-05-20 09:00:25 GMT 48.525650 1.987610 30,000 278 489 0
2018-05-20 09:00:22 GMT 48.524689 1.998103 30,000 278 489 0
2018-05-20 09:00:19 GMT 48.523308 2.012594 30,000 278 489 0
2018-05-20 09:00:15 GMT 48.522190 2.024737 30,000 278 489 0
2018-05-20 09:00:12 GMT 48.521439 2.033175 29,975 278 489 0
2018-05-20 09:00:09 GMT 48.520374 2.044975 29,975 278 488 0
2018-05-20 09:00:05 GMT 48.518978 2.060081 30,000 278 488 -64
2018-05-20 09:00:02 GMT 48.518513 2.065141 30,000 279 487 0
2018-05-20 08:59:59 GMT 48.517593 2.075219 30,000 278 487 0
2018-05-20 08:59:56 GMT 48.516369 2.088342 30,000 278 487 0
2018-05-20 08:59:53 GMT 48.515579 2.097088 30,000 278 487 0
2018-05-20 08:59:49 GMT 48.514343 2.110150 30,000 279 486 0
2018-05-20 08:59:45 GMT 48.513252 2.121879 30,000 279 486 64
2018-05-20 08:59:42 GMT 48.512039 2.135251 30,000 279 486 64
2018-05-20 08:59:39 GMT 48.511204 2.143996 30,000 279 485 0
2018-05-20 08:59:36 GMT 48.510410 2.152308 30,000 278 485 64
2018-05-20 08:59:32 GMT 48.508877 2.168716 30,000 279 485 0
2018-05-20 08:59:29 GMT 48.507843 2.180082 29,975 278 485 0
2018-05-20 08:59:25 GMT 48.506920 2.190110 30,000 278 484 0
2018-05-20 08:59:22 GMT 48.505737 2.202407 30,000 278 484 0
2018-05-20 08:59:19 GMT 48.504967 2.211143 30,000 278 484 0
2018-05-20 08:59:15 GMT 48.503754 2.224153 30,000 278 484 0
2018-05-20 08:59:12 GMT 48.502945 2.232760 30,000 278 484 0
2018-05-20 08:59:08 GMT 48.501434 2.249099 30,000 278 483 0
2018-05-20 08:59:04 GMT 48.500217 2.262099 29,975 279 483 64
2018-05-20 08:59:00 GMT 48.499008 2.275085 29,975 279 483 0
2018-05-20 08:58:56 GMT 48.497726 2.289100 29,975 279 483 0
2018-05-20 08:58:51 GMT 48.496353 2.303678 29,975 278 483 0
2018-05-20 08:58:47 GMT 48.495144 2.316670 30,000 278 482 0
2018-05-20 08:58:44 GMT 48.493927 2.329665 30,000 278 482 0
2018-05-20 08:58:40 GMT 48.492783 2.342271 30,000 278 482 0
2018-05-20 08:58:34 GMT 48.491272 2.358539 30,000 278 482 0
2018-05-20 08:58:31 GMT 48.490067 2.371529 30,000 278 482 0
2018-05-20 08:58:24 GMT 48.487881 2.395092 29,975 279 480 0
2018-05-20 08:58:21 GMT 48.486900 2.405355 30,000 279 481 -64
2018-05-20 08:58:13 GMT 48.484249 2.433183 30,000 279 481 0
2018-05-20 08:58:10 GMT 48.483597 2.440121 30,000 279 481 0
2018-05-20 08:58:04 GMT 48.481934 2.458050 30,000 279 481 0
2018-05-20 08:58:00 GMT 48.480385 2.474598 30,000 279 481 0
2018-05-20 08:57:52 GMT 48.477871 2.501052 30,000 279 480 0
2018-05-20 08:57:49 GMT 48.477219 2.508052 30,000 279 480 0
2018-05-20 08:57:44 GMT 48.475498 2.525916 30,000 279 480 0
2018-05-20 08:57:41 GMT 48.474747 2.533828 30,000 279 480 0
2018-05-20 08:57:38 GMT 48.473820 2.543769 30,000 279 480 0
2018-05-20 08:57:33 GMT 48.472046 2.562279 30,000 279 480 0
2018-05-20 08:57:29 GMT 48.470581 2.577773 30,000 279 480 0
2018-05-20 08:57:24 GMT 48.469162 2.592633 30,000 279 479 0
2018-05-20 08:57:20 GMT 48.467815 2.606868 30,000 279 479 0
2018-05-20 08:57:17 GMT 48.467163 2.613445 30,000 279 479 0
2018-05-20 08:57:13 GMT 48.465721 2.628696 30,000 279 479 0
2018-05-20 08:57:10 GMT 48.464767 2.638550 30,000 279 480 0
2018-05-20 08:57:07 GMT 48.463905 2.647127 30,000 279 480 0
2018-05-20 08:57:02 GMT 48.462322 2.663317 30,000 279 480 0
2018-05-20 08:56:59 GMT 48.461250 2.674231 30,000 279 480 0
2018-05-20 08:56:56 GMT 48.460510 2.682143 30,000 279 480 0
2018-05-20 08:56:53 GMT 48.459251 2.694614 30,000 279 480 0
2018-05-20 08:56:48 GMT 48.457436 2.713117 30,000 279 480 0
2018-05-20 08:56:45 GMT 48.456757 2.720032 30,000 279 480 0
2018-05-20 08:56:42 GMT 48.455933 2.728271 30,000 279 480 64
2018-05-20 08:56:38 GMT 48.454594 2.741812 30,000 279 480 64
2018-05-20 08:56:35 GMT 48.453232 2.755315 30,000 279 480 0
2018-05-20 08:56:31 GMT 48.452133 2.766160 30,000 279 480 0
2018-05-20 08:56:26 GMT 48.450451 2.782649 30,000 279 479 0
2018-05-20 08:56:22 GMT 48.449146 2.795153 30,000 279 479 0
2018-05-20 08:56:16 GMT 48.447006 2.815951 30,000 279 479 0
2018-05-20 08:56:11 GMT 48.445518 2.830425 30,000 279 480 0
2018-05-20 08:56:07 GMT 48.443756 2.847572 30,000 279 480 0
2018-05-20 08:56:01 GMT 48.441978 2.864685 30,000 279 479 0
2018-05-20 08:55:56 GMT 48.439728 2.885742 30,000 280 480 0
2018-05-20 08:55:51 GMT 48.438492 2.897292 29,975 280 481 0
2018-05-20 08:55:44 GMT 48.436157 2.919405 30,000 279 480 0
2018-05-20 08:55:39 GMT 48.434280 2.937505 29,975 279 481 0
2018-05-20 08:55:35 GMT 48.433041 2.950407 30,000 278 481 0
2018-05-20 08:55:32 GMT 48.431946 2.962013 30,000 278 481 0
2018-05-20 08:55:29 GMT 48.431133 2.970934 30,000 278 481 0
2018-05-20 08:55:24 GMT 48.429749 2.986168 30,000 275 483 0
2018-05-20 08:55:21 GMT 48.428833 2.995746 30,000 275 483 0
2018-05-20 08:55:18 GMT 48.427780 3.007001 30,000 279 481 0
2018-05-20 08:55:14 GMT 48.426407 3.021592 30,000 279 481 0
2018-05-20 08:55:11 GMT 48.425499 3.031504 30,000 279 481 0
2018-05-20 08:55:07 GMT 48.424614 3.040828 30,000 279 481 0
2018-05-20 08:55:03 GMT 48.423157 3.056030 30,000 279 481 0
2018-05-20 08:55:00 GMT 48.422195 3.066312 30,000 279 481 0
2018-05-20 08:54:57 GMT 48.421417 3.074623 30,000 279 482 0
2018-05-20 08:54:54 GMT 48.420147 3.087520 30,000 279 482 0
2018-05-20 08:54:51 GMT 48.419266 3.096454 30,000 279 482 0
2018-05-20 08:54:48 GMT 48.417957 3.109998 30,000 279 482 0
2018-05-20 08:54:45 GMT 48.417122 3.118310 30,000 279 483 0
2018-05-20 08:54:42 GMT 48.415970 3.130258 30,000 279 483 0
2018-05-20 08:54:36 GMT 48.414654 3.144186 30,000 277 483 0
2018-05-20 08:54:33 GMT 48.413628 3.156473 30,000 277 482 0
2018-05-20 08:54:30 GMT 48.412838 3.167098 30,000 277 484 0
2018-05-20 08:54:25 GMT 48.411953 3.181843 30,000 277 483 0
2018-05-20 08:54:22 GMT 48.411346 3.193923 30,000 278 483 0
2018-05-20 08:54:16 GMT 48.410110 3.216952 30,000 275 483 0
2018-05-20 08:54:11 GMT 48.409103 3.233361 30,000 277 483 0
2018-05-20 08:54:08 GMT 48.408649 3.239738 30,000 277 483 0
2018-05-20 08:54:01 GMT 48.406815 3.262376 30,000 281 483 64
2018-05-20 08:53:58 GMT 48.405716 3.273292 30,000 280 483 0
2018-05-20 08:53:54 GMT 48.404179 3.286864 30,000 281 483 64
2018-05-20 08:53:51 GMT 48.402924 3.297055 30,000 286 481 -64
2018-05-20 08:53:48 GMT 48.401619 3.306596 30,000 283 482 0
2018-05-20 08:53:43 GMT 48.398941 3.323857 29,975 285 481 0
2018-05-20 08:53:40 GMT 48.396973 3.335196 30,000 289 481 0
2018-05-20 08:53:37 GMT 48.395519 3.342879 30,000 287 481 0
2018-05-20 08:53:31 GMT 48.392441 3.357873 30,000 289 481 0
2018-05-20 08:53:26 GMT 48.388412 3.375549 30,000 290 481 0
2018-05-20 08:53:22 GMT 48.384842 3.391043 30,000 290 481 0
2018-05-20 08:53:16 GMT 48.381134 3.407100 30,000 290 481 0
2018-05-20 08:53:12 GMT 48.377563 3.422593 30,000 290 481 0
2018-05-20 08:53:09 GMT 48.374851 3.434239 30,000 290 481 0
2018-05-20 08:53:06 GMT 48.373398 3.440552 30,000 290 481 0
2018-05-20 08:53:01 GMT 48.370056 3.455056 30,000 290 481 0
2018-05-20 08:52:58 GMT 48.367634 3.465464 30,000 290 481 0
2018-05-20 08:52:55 GMT 48.364983 3.476811 30,000 290 481 0
2018-05-20 08:52:50 GMT 48.362373 3.487870 30,000 290 482 0
2018-05-20 08:52:47 GMT 48.359802 3.498864 30,000 290 481 0
2018-05-20 08:52:44 GMT 48.357559 3.508653 30,000 290 481 0
2018-05-20 08:52:41 GMT 48.354584 3.521259 30,000 290 481 0
2018-05-20 08:52:38 GMT 48.352844 3.528865 30,000 290 481 0
2018-05-20 08:52:35 GMT 48.350876 3.537316 30,000 290 481 0
2018-05-20 08:52:30 GMT 48.346687 3.555306 30,000 290 481 0
2018-05-20 08:52:26 GMT 48.344147 3.565979 30,000 290 482 0
2018-05-20 08:52:23 GMT 48.342316 3.573867 30,000 290 482 0
2018-05-20 08:52:19 GMT 48.339523 3.585839 30,000 290 481 0
2018-05-20 08:52:16 GMT 48.337006 3.596577 30,000 290 481 0
2018-05-20 08:52:12 GMT 48.333744 3.610454 30,000 290 482 0
2018-05-20 08:52:08 GMT 48.330441 3.624621 30,000 290 482 0
2018-05-20 08:52:04 GMT 48.328217 3.634010 30,000 290 482 0
2018-05-20 08:52:00 GMT 48.324600 3.649433 30,000 290 482 0
2018-05-20 08:51:56 GMT 48.322449 3.658588 30,000 290 482 0
2018-05-20 08:51:52 GMT 48.318375 3.675913 30,000 290 482 0
2018-05-20 08:51:48 GMT 48.316406 3.684434 30,000 290 481 0
2018-05-20 08:51:43 GMT 48.312565 3.700802 30,000 290 481 0
2018-05-20 08:51:38 GMT 48.308624 3.717816 30,000 290 481 0
2018-05-20 08:51:35 GMT 48.306561 3.726678 30,000 290 481 0
2018-05-20 08:51:31 GMT 48.303543 3.739577 30,000 290 481 0
2018-05-20 08:51:27 GMT 48.299927 3.755000 30,000 290 481 0
2018-05-20 08:51:24 GMT 48.297901 3.763829 30,000 290 481 0
2018-05-20 08:51:21 GMT 48.296455 3.770190 30,000 289 481 0
2018-05-20 08:51:17 GMT 48.292873 3.785657 30,000 289 481 0
2018-05-20 08:51:14 GMT 48.290588 3.795776 30,000 289 482 0
2018-05-20 08:51:11 GMT 48.288986 3.802678 30,000 289 482 0
2018-05-20 08:51:08 GMT 48.286285 3.814721 30,000 276 487 0
2018-05-20 08:50:59 GMT 48.279930 3.842468 30,000 290 482 0
2018-05-20 08:50:55 GMT 48.277092 3.854466 30,000 289 483 0
2018-05-20 08:50:50 GMT 48.273697 3.868596 30,000 286 483 0
2018-05-20 08:50:46 GMT 48.270538 3.881766 30,000 290 482 0
2018-05-20 08:50:43 GMT 48.268433 3.891256 30,000 286 483 0
2018-05-20 08:50:40 GMT 48.266525 3.900508 30,000 279 486 64
2018-05-20 08:50:36 GMT 48.264267 3.912471 30,000 286 483 0
2018-05-20 08:50:31 GMT 48.260880 3.933598 30,000 283 485 64
2018-05-20 08:50:24 GMT 48.258240 3.953705 29,975 279 486 64
2018-05-20 08:50:19 GMT 48.256851 3.966628 29,975 278 486 64
2018-05-20 08:50:15 GMT 48.255615 3.981347 29,975 276 487 0
2018-05-20 08:50:12 GMT 48.255020 3.990432 29,975 272 489 -64
2018-05-20 08:50:07 GMT 48.254234 4.009287 29,975 272 489 -64
2018-05-20 08:50:04 GMT 48.254105 4.019447 29,975 271 490 -128
2018-05-20 08:49:58 GMT 48.254421 4.041162 30,000 267 490 0
2018-05-20 08:49:55 GMT 48.254745 4.049589 30,000 267 490 0
2018-05-20 08:49:52 GMT 48.255257 4.062845 30,000 267 490 64
2018-05-20 08:49:45 GMT 48.256165 4.085858 30,000 267 490 0
2018-05-20 08:49:42 GMT 48.256577 4.095013 29,975 267 490 0
2018-05-20 08:49:36 GMT 48.257309 4.112267 30,000 267 490 0
2018-05-20 08:49:33 GMT 48.257820 4.124499 30,000 267 490 0
2018-05-20 08:49:30 GMT 48.258286 4.135341 30,000 267 490 0
2018-05-20 08:49:25 GMT 48.258911 4.150578 30,000 267 489 0
2018-05-20 08:49:22 GMT 48.259506 4.165438 30,000 267 489 0
2018-05-20 08:49:18 GMT 48.259819 4.172564 30,000 267 489 0
2018-05-20 08:49:13 GMT 48.260612 4.192874 30,000 267 489 0
2018-05-20 08:49:09 GMT 48.261246 4.208468 30,000 267 489 0
2018-05-20 08:49:02 GMT 48.262196 4.232844 30,000 267 489 0
2018-05-20 08:48:58 GMT 48.262707 4.244987 30,000 267 489 0
2018-05-20 08:48:53 GMT 48.263397 4.261921 30,000 267 489 0
2018-05-20 08:48:50 GMT 48.263901 4.274104 30,000 267 488 0
2018-05-20 08:48:45 GMT 48.264336 4.285608 30,000 267 489 64
2018-05-20 08:48:40 GMT 48.265079 4.304183 30,000 267 488 0
2018-05-20 08:48:36 GMT 48.265640 4.318711 30,000 267 488 0
2018-05-20 08:48:32 GMT 48.266006 4.328895 30,000 267 488 0
2018-05-20 08:48:28 GMT 48.266525 4.342057 30,000 267 488 0
2018-05-20 08:48:25 GMT 48.267014 4.354882 30,000 267 488 0
2018-05-20 08:48:22 GMT 48.267406 4.365042 30,000 268 487 0
2018-05-20 08:48:19 GMT 48.267792 4.375164 30,000 267 488 0
2018-05-20 08:48:14 GMT 48.268433 4.392700 30,000 267 488 0
2018-05-20 08:48:11 GMT 48.268845 4.403194 30,000 268 487 0
2018-05-20 08:48:08 GMT 48.269073 4.409954 30,000 268 488 0
2018-05-20 08:48:03 GMT 48.269714 4.428476 30,000 268 488 0
2018-05-20 08:47:58 GMT 48.270248 4.446066 30,000 268 487 0
2018-05-20 08:47:52 GMT 48.270859 4.466576 30,000 268 487 0
2018-05-20 08:47:48 GMT 48.271271 4.483126 30,000 268 487 0
2018-05-20 08:47:45 GMT 48.271412 4.488204 30,000 268 487 0
2018-05-20 08:47:40 GMT 48.272003 4.508690 29,975 268 487 64
2018-05-20 08:47:36 GMT 48.272388 4.520151 30,000 267 486 128
2018-05-20 08:47:30 GMT 48.273148 4.540663 29,975 275 482 0
2018-05-20 08:47:26 GMT 48.273560 4.557495 30,000 271 485 -64
2018-05-20 08:47:20 GMT 48.273319 4.573926 30,000 271 485 -64
2018-05-20 08:47:15 GMT 48.272598 4.588553 30,000 278 481 64
2018-05-20 08:47:11 GMT 48.271503 4.602115 29,975 278 481 64
2018-05-20 08:47:07 GMT 48.269806 4.616864 29,975 281 480 64
2018-05-20 08:47:01 GMT 48.266850 4.635941 29,975 302 471 0
2018-05-20 08:46:58 GMT 48.264862 4.646442 29,975 290 477 0
2018-05-20 08:46:51 GMT 48.259827 4.667570 29,975 294 476 -64
2018-05-20 08:46:48 GMT 48.256420 4.679308 29,975 302 471 0
2018-05-20 08:46:42 GMT 48.252232 4.691957 30,000 302 471 0
2018-05-20 08:46:36 GMT 48.244217 4.712219 30,000 303 471 0
2018-05-20 08:46:30 GMT 48.238686 4.725422 30,000 303 471 0
2018-05-20 08:46:26 GMT 48.233334 4.738143 30,000 303 471 0
2018-05-20 08:46:23 GMT 48.229980 4.746166 30,000 303 471 0
2018-05-20 08:46:19 GMT 48.225220 4.757503 30,000 303 470 0
2018-05-20 08:46:14 GMT 48.219181 4.771825 29,975 303 470 0
2018-05-20 08:46:09 GMT 48.214096 4.783982 30,000 303 471 0
2018-05-20 08:46:03 GMT 48.207413 4.799969 30,000 303 470 0
2018-05-20 08:45:59 GMT 48.202888 4.810711 30,000 303 470 0
2018-05-20 08:45:55 GMT 48.196556 4.825889 30,000 302 471 0
2018-05-20 08:45:51 GMT 48.193253 4.833912 30,000 302 471 0
2018-05-20 08:45:48 GMT 48.189667 4.842513 30,000 303 470 0
2018-05-20 08:45:45 GMT 48.186546 4.849958 30,000 303 470 0
2018-05-20 08:45:42 GMT 48.182732 4.858993 30,000 303 470 0
2018-05-20 08:45:39 GMT 48.179031 4.867859 30,000 303 470 0
2018-05-20 08:45:35 GMT 48.174179 4.879409 30,000 303 470 0
2018-05-20 08:45:32 GMT 48.171066 4.886803 30,000 303 470 64
2018-05-20 08:45:28 GMT 48.166214 4.898353 30,000 303 470 0
2018-05-20 08:45:25 GMT 48.162712 4.906552 30,000 303 470 0
2018-05-20 08:45:22 GMT 48.159256 4.914803 30,000 303 469 0
2018-05-20 08:45:15 GMT 48.149910 4.937016 29,975 303 469 0
2018-05-20 08:45:12 GMT 48.146744 4.944411 30,000 303 469 0
2018-05-20 08:45:08 GMT 48.142601 4.954271 30,000 303 469 0
2018-05-20 08:45:05 GMT 48.139938 4.960602 30,000 303 469 0
2018-05-20 08:45:00 GMT 48.134262 4.973991 30,000 303 469 0
2018-05-20 08:44:54 GMT 48.127659 4.989624 30,000 303 469 0
2018-05-20 08:44:50 GMT 48.122452 5.002007 30,000 303 469 0
2018-05-20 08:44:43 GMT 48.113480 5.023293 30,000 303 469 0
2018-05-20 08:44:39 GMT 48.108856 5.034279 30,000 303 469 0
2018-05-20 08:44:35 GMT 48.105057 5.043274 30,000 303 468 0
2018-05-20 08:44:32 GMT 48.099380 5.056664 30,000 303 468 0
2018-05-20 08:44:29 GMT 48.097321 5.061607 30,000 303 468 0
2018-05-20 08:44:24 GMT 48.093025 5.071669 30,000 303 468 0
2018-05-20 08:44:21 GMT 48.088852 5.081520 30,000 303 467 0
2018-05-20 08:44:17 GMT 48.084915 5.090790 30,000 303 467 0
2018-05-20 08:44:13 GMT 48.079376 5.103836 30,000 303 467 0
2018-05-20 08:44:10 GMT 48.075939 5.112023 30,000 303 467 0
2018-05-20 08:44:07 GMT 48.072586 5.119911 30,000 303 466 0
2018-05-20 08:44:03 GMT 48.068676 5.129207 30,000 303 467 0
2018-05-20 08:43:59 GMT 48.064178 5.139816 30,000 303 466 0
2018-05-20 08:43:56 GMT 48.059692 5.150475 30,000 303 467 0
2018-05-20 08:43:52 GMT 48.055408 5.160546 30,000 303 467 0
2018-05-20 08:43:46 GMT 48.048286 5.177448 30,000 303 466 0
2018-05-20 08:43:43 GMT 48.045502 5.183968 30,000 303 465 0
2018-05-20 08:43:39 GMT 48.040192 5.196465 30,000 303 467 0
2018-05-20 08:43:34 GMT 48.034882 5.208928 30,000 303 466 0
2018-05-20 08:43:28 GMT 48.028061 5.224960 30,000 303 466 0
2018-05-20 08:43:25 GMT 48.023335 5.236042 30,000 303 466 64
2018-05-20 08:43:21 GMT 48.019981 5.243929 29,975 303 466 0
2018-05-20 08:43:18 GMT 48.016479 5.252083 30,000 303 465 0
2018-05-20 08:43:15 GMT 48.012680 5.261009 30,000 303 465 0
2018-05-20 08:43:11 GMT 48.008743 5.270210 30,000 303 465 0
2018-05-20 08:43:07 GMT 48.002991 5.283720 30,000 303 465 0
2018-05-20 08:43:03 GMT 47.999084 5.292938 30,000 303 465 0
2018-05-20 08:42:59 GMT 47.994801 5.302946 30,000 303 464 0
2018-05-20 08:42:53 GMT 47.986450 5.322395 30,000 303 464 0
2018-05-20 08:42:50 GMT 47.984161 5.327820 30,000 303 464 0
2018-05-20 08:42:47 GMT 47.980591 5.336197 30,000 303 464 0
2018-05-20 08:42:44 GMT 47.976643 5.345342 30,000 303 464 64
2018-05-20 08:42:40 GMT 47.972122 5.355835 30,000 303 464 64
2018-05-20 08:42:34 GMT 47.965332 5.371751 30,000 303 464 0
2018-05-20 08:42:31 GMT 47.961514 5.380625 30,000 303 464 0
2018-05-20 08:42:27 GMT 47.957474 5.390099 30,000 303 464 0
2018-05-20 08:42:22 GMT 47.951569 5.403831 30,000 303 464 0
2018-05-20 08:42:18 GMT 47.947502 5.413231 30,000 303 464 0
2018-05-20 08:42:15 GMT 47.943684 5.422105 30,000 303 464 0
2018-05-20 08:42:12 GMT 47.938843 5.433373 29,975 303 463 0
2018-05-20 08:42:09 GMT 47.934887 5.442528 30,000 303 463 64
2018-05-20 08:42:05 GMT 47.932323 5.448444 29,975 303 463 64
2018-05-20 08:42:02 GMT 47.928406 5.457527 29,975 303 463 64
2018-05-20 08:41:59 GMT 47.925388 5.464501 29,975 303 463 0
2018-05-20 08:41:56 GMT 47.921219 5.474144 29,975 303 464 0
2018-05-20 08:41:53 GMT 47.918335 5.480873 29,975 303 464 0
2018-05-20 08:41:48 GMT 47.911888 5.495911 29,975 303 463 0
2018-05-20 08:41:44 GMT 47.907745 5.505559 29,975 303 463 0
2018-05-20 08:41:38 GMT 47.900204 5.523024 29,975 303 463 -64
2018-05-20 08:41:35 GMT 47.897224 5.529996 29,975 303 463 -64
2018-05-20 08:41:29 GMT 47.890869 5.544731 29,975 303 463 0
2018-05-20 08:41:24 GMT 47.884964 5.558395 29,975 303 463 0
2018-05-20 08:41:21 GMT 47.879883 5.570137 30,000 303 463 0
2018-05-20 08:41:14 GMT 47.872272 5.587816 29,975 303 463 0
2018-05-20 08:41:09 GMT 47.866470 5.601173 29,975 303 462 0
2018-05-20 08:41:03 GMT 47.858772 5.619155 29,975 303 463 0
2018-05-20 08:40:58 GMT 47.855095 5.627676 29,975 303 462 0
2018-05-20 08:40:54 GMT 47.849232 5.641339 29,975 303 463 0
2018-05-20 08:40:49 GMT 47.844269 5.652878 30,000 303 462 0
2018-05-20 08:40:43 GMT 47.837402 5.668945 30,000 303 462 0
2018-05-20 08:40:37 GMT 47.829025 5.688515 30,000 303 463 0
2018-05-20 08:40:31 GMT 47.824081 5.699982 30,000 303 463 0
2018-05-20 08:40:26 GMT 47.817581 5.715294 30,000 303 462 0
2018-05-20 08:40:21 GMT 47.810871 5.731131 30,000 303 462 0
2018-05-20 08:40:16 GMT 47.805935 5.742680 30,000 303 462 0
2018-05-20 08:40:13 GMT 47.802773 5.750146 30,000 303 462 0
2018-05-20 08:40:09 GMT 47.797302 5.763084 30,000 303 461 0
2018-05-20 08:40:06 GMT 47.795601 5.767048 30,000 303 462 0
2018-05-20 08:40:03 GMT 47.791599 5.776485 30,000 303 462 0
2018-05-20 08:40:00 GMT 47.788525 5.783738 30,000 303 462 0
2018-05-20 08:39:56 GMT 47.782883 5.797142 30,000 303 462 0
2018-05-20 08:39:52 GMT 47.778351 5.807854 30,000 303 461 0
2018-05-20 08:39:49 GMT 47.774700 5.816416 30,000 303 461 0
2018-05-20 08:39:45 GMT 47.770798 5.825500 30,000 304 461 0
2018-05-20 08:39:40 GMT 47.765350 5.837997 30,000 304 461 0
2018-05-20 08:39:34 GMT 47.758987 5.852280 30,000 304 461 0
2018-05-20 08:39:30 GMT 47.752682 5.866558 30,000 303 461 0
2018-05-20 08:39:27 GMT 47.750401 5.871840 30,000 301 460 0
2018-05-20 08:39:23 GMT 47.745651 5.883108 30,000 301 460 0
2018-05-20 08:39:20 GMT 47.741730 5.892517 30,000 301 460 0
2018-05-20 08:39:17 GMT 47.739227 5.898743 30,000 301 460 0
2018-05-20 08:39:14 GMT 47.734589 5.910439 30,000 300 461 0
2018-05-20 08:39:10 GMT 47.731339 5.918953 30,000 300 460 0
2018-05-20 08:39:06 GMT 47.726257 5.932411 30,000 299 460 0
2018-05-20 08:39:03 GMT 47.723282 5.940445 29,975 298 460 0
2018-05-20 08:39:00 GMT 47.720810 5.947449 29,975 297 460 0
2018-05-20 08:38:57 GMT 47.718201 5.954659 29,975 297 460 0
2018-05-20 08:38:54 GMT 47.714832 5.964520 29,975 297 460 0
2018-05-20 08:38:50 GMT 47.711380 5.974640 29,975 297 460 0
2018-05-20 08:38:47 GMT 47.708725 5.982880 29,975 294 460 0
2018-05-20 08:38:42 GMT 47.703846 5.998676 29,975 294 460 0
2018-05-20 08:38:39 GMT 47.702126 6.004451 29,975 293 461 0
2018-05-20 08:38:34 GMT 47.697830 6.019547 29,975 293 461 0
2018-05-20 08:38:29 GMT 47.693893 6.033829 29,975 293 461 0
2018-05-20 08:38:24 GMT 47.689819 6.048729 29,975 293 461 0
2018-05-20 08:38:19 GMT 47.685562 6.064247 30,000 293 460 -64
2018-05-20 08:38:15 GMT 47.681549 6.078820 29,975 293 460 -64
2018-05-20 08:38:12 GMT 47.680023 6.084366 30,000 293 460 -64
2018-05-20 08:38:08 GMT 47.676891 6.095722 30,000 293 458 192
2018-05-20 08:38:05 GMT 47.674301 6.105034 30,000 293 458 320
2018-05-20 08:38:02 GMT 47.672333 6.112312 30,000 293 459 0
2018-05-20 08:37:59 GMT 47.668625 6.125702 30,000 293 458 256
2018-05-20 08:37:56 GMT 47.667526 6.129753 29,975 293 457 768
2018-05-20 08:37:53 GMT 47.664734 6.139915 29,950 293 457 1088
2018-05-20 08:37:50 GMT 47.662182 6.149245 29,900 293 457 1088
2018-05-20 08:37:47 GMT 47.660461 6.155302 29,800 293 458 1280
2018-05-20 08:37:41 GMT 47.655579 6.173012 29,750 293 458 1280
2018-05-20 08:37:38 GMT 47.652870 6.182838 29,650 293 458 1344
2018-05-20 08:37:35 GMT 47.650772 6.190384 29,550 293 458 1408
2018-05-20 08:37:31 GMT 47.646835 6.204597 29,525 293 459 1344
2018-05-20 08:37:27 GMT 47.643631 6.216202 29,400 293 459 1344
2018-05-20 08:37:23 GMT 47.640396 6.227840 29,350 293 459 1344
2018-05-20 08:37:20 GMT 47.638393 6.235093 29,275 293 459 1408
2018-05-20 08:37:17 GMT 47.636307 6.242638 29,200 293 459 1344
2018-05-20 08:37:14 GMT 47.632874 6.254860 29,125 293 459 1344
2018-05-20 08:37:10 GMT 47.630402 6.263855 29,050 293 460 1344
2018-05-20 08:37:06 GMT 47.627289 6.274910 28,900 293 460 1408
2018-05-20 08:37:03 GMT 47.624523 6.284814 28,850 293 460 1408
2018-05-20 08:37:00 GMT 47.621201 6.296745 28,800 293 460 1408
2018-05-20 08:36:57 GMT 47.619682 6.302279 28,625 293 460 1408
2018-05-20 08:36:54 GMT 47.617306 6.310730 28,625 293 460 1408
2018-05-20 08:36:51 GMT 47.613628 6.323829 28,600 293 461 1280
2018-05-20 08:36:45 GMT 47.609665 6.338081 28,475 293 460 1344
2018-05-20 08:36:42 GMT 47.606598 6.349136 28,400 293 460 1344
2018-05-20 08:36:38 GMT 47.604134 6.357915 28,050 293 461 1600
2018-05-20 08:36:35 GMT 47.601151 6.368706 28,250 293 461 1536
2018-05-20 08:36:32 GMT 47.599430 6.374817 28,125 293 461 1664
2018-05-20 08:36:28 GMT 47.595200 6.389992 28,050 293 461 1600
2018-05-20 08:36:24 GMT 47.592682 6.399055 27,975 293 462 1536
2018-05-20 08:36:21 GMT 47.590485 6.406883 27,900 293 463 1600
2018-05-20 08:36:18 GMT 47.587700 6.416861 27,800 293 463 1600
2018-05-20 08:36:15 GMT 47.585266 6.425629 27,725 293 463 1856
2018-05-20 08:36:12 GMT 47.583206 6.432907 27,625 293 468 1920
2018-05-20 08:36:09 GMT 47.580322 6.443138 27,500 293 466 1792
2018-05-20 08:36:06 GMT 47.577347 6.453712 27,425 293 464 1728
2018-05-20 08:36:03 GMT 47.575745 6.459549 27,325 293 465 1664
2018-05-20 08:36:00 GMT 47.572998 6.469231 27,275 293 465 1728
2018-05-20 08:35:56 GMT 47.569290 6.482483 27,125 293 465 1792
2018-05-20 08:35:53 GMT 47.566658 6.491864 27,050 293 466 1792
2018-05-20 08:35:48 GMT 47.563538 6.503061 26,800 293 467 1792
2018-05-20 08:35:45 GMT 47.560547 6.513657 26,825 293 467 1856
2018-05-20 08:35:42 GMT 47.557755 6.523682 26,700 293 467 1920
2018-05-20 08:35:39 GMT 47.555603 6.531303 26,125 291 460 1216
2018-05-20 08:35:35 GMT 47.551849 6.544624 26,475 293 468 1984
2018-05-20 08:35:32 GMT 47.550201 6.550529 26,350 293 470 1856
2018-05-20 08:35:29 GMT 47.546356 6.564125 26,300 293 470 1856
2018-05-20 08:35:26 GMT 47.544964 6.569190 26,225 293 470 1856
2018-05-20 08:35:23 GMT 47.541798 6.580388 26,100 293 470 1600
2018-05-20 08:35:19 GMT 47.539581 6.588089 26,075 293 471 1216
2018-05-20 08:35:16 GMT 47.536770 6.598206 26,000 293 470 192
2018-05-20 08:35:12 GMT 47.533310 6.610336 26,000 293 468 0
2018-05-20 08:35:09 GMT 47.530392 6.620671 26,000 293 468 0
2018-05-20 08:35:05 GMT 47.527908 6.629562 26,000 293 469 0
2018-05-20 08:35:02 GMT 47.524567 6.641373 26,000 293 469 0
2018-05-20 08:34:59 GMT 47.522804 6.647574 26,000 293 469 0
2018-05-20 08:34:55 GMT 47.518158 6.664169 26,000 293 470 0
2018-05-20 08:34:52 GMT 47.516830 6.668907 26,000 293 470 0
2018-05-20 08:34:49 GMT 47.514221 6.678108 25,975 293 470 64
2018-05-20 08:34:46 GMT 47.511726 6.686941 25,975 293 470 0
2018-05-20 08:34:43 GMT 47.508793 6.697364 25,975 293 470 0
2018-05-20 08:34:39 GMT 47.505627 6.708632 25,975 293 471 0
2018-05-20 08:34:35 GMT 47.502460 6.719900 25,975 293 471 -128
2018-05-20 08:34:32 GMT 47.499802 6.729332 26,000 293 470 -128
2018-05-20 08:34:28 GMT 47.496689 6.740324 26,000 293 470 -128
2018-05-20 08:34:24 GMT 47.492340 6.755699 25,950 293 469 -64
2018-05-20 08:34:20 GMT 47.489845 6.764550 25,950 293 467 640
2018-05-20 08:34:17 GMT 47.487053 6.774621 25,900 293 467 1024
2018-05-20 08:34:13 GMT 47.483749 6.786382 25,900 293 467 1024
2018-05-20 08:34:10 GMT 47.480862 6.796664 25,825 293 466 1280
2018-05-20 08:34:07 GMT 47.479660 6.801018 25,775 293 465 1280
2018-05-20 08:34:01 GMT 47.473892 6.821892 25,600 292 464 1152
2018-05-20 08:33:57 GMT 47.471375 6.831024 25,575 293 463 1216
2018-05-20 08:33:52 GMT 47.467037 6.846877 25,450 293 463 1344
2018-05-20 08:33:48 GMT 47.463825 6.858567 25,375 293 462 1408
2018-05-20 08:33:45 GMT 47.461533 6.866730 25,325 293 462 1408
2018-05-20 08:33:42 GMT 47.458832 6.876343 25,200 294 462 1344
2018-05-20 08:33:39 GMT 47.456329 6.885047 25,150 294 462 1344
2018-05-20 08:33:36 GMT 47.454372 6.891667 25,125 294 462 1280
2018-05-20 08:33:31 GMT 47.449020 6.910189 24,975 292 460 1280
2018-05-20 08:33:28 GMT 47.447800 6.914589 24,900 290 460 1216
2018-05-20 08:33:25 GMT 47.445007 6.925438 24,775 287 458 1216
2018-05-20 08:33:22 GMT 47.442875 6.934275 24,825 289 460 1280
2018-05-20 08:33:19 GMT 47.441105 6.942303 24,675 286 458 1216
2018-05-20 08:33:16 GMT 47.438919 6.952796 24,675 287 457 1216
2018-05-20 08:33:11 GMT 47.436172 6.967804 24,375 271 450 1600
2018-05-20 08:33:07 GMT 47.434402 6.978431 24,450 282 456 1408
2018-05-20 08:33:04 GMT 47.433014 6.987511 24,425 282 456 1408
2018-05-20 08:33:00 GMT 47.431274 7.000282 24,225 279 455 1408
2018-05-20 08:32:57 GMT 47.430260 7.008855 24,250 279 455 1408
2018-05-20 08:32:54 GMT 47.429420 7.017165 24,175 278 454 1344
2018-05-20 08:32:50 GMT 47.428165 7.032870 23,975 271 445 1728
2018-05-20 08:32:45 GMT 47.427422 7.050406 23,950 272 453 1216
2018-05-20 08:32:41 GMT 47.427292 7.059059 23,825 270 452 1344
2018-05-20 08:32:38 GMT 47.427246 7.068604 23,775 270 451 1408
2018-05-20 08:32:34 GMT 47.427246 7.081787 23,725 270 451 1472
2018-05-20 08:32:26 GMT 47.427189 7.106675 23,475 271 450 1600
2018-05-20 08:32:23 GMT 47.427139 7.114633 23,375 271 446 1664
2018-05-20 08:32:16 GMT 47.427048 7.133930 23,300 271 449 1536
2018-05-20 08:32:13 GMT 47.426907 7.147733 23,175 271 449 1664
2018-05-20 08:32:07 GMT 47.426788 7.161713 23,025 271 448 1664
2018-05-20 08:32:04 GMT 47.426651 7.173042 22,950 271 448 1664
2018-05-20 08:32:01 GMT 47.426582 7.182171 22,850 271 447 1664
2018-05-20 08:31:56 GMT 47.426468 7.197418 22,700 271 446 1664
2018-05-20 08:31:53 GMT 47.426422 7.205040 22,650 271 447 1664
2018-05-20 08:31:50 GMT 47.426376 7.214447 22,575 271 446 1664
2018-05-20 08:31:47 GMT 47.426304 7.227525 22,225 271 445 1728
2018-05-20 08:31:44 GMT 47.426285 7.234772 22,375 271 445 1600
2018-05-20 08:31:40 GMT 47.426239 7.248161 22,250 271 445 1728
2018-05-20 08:31:36 GMT 47.426163 7.258442 22,175 271 445 1728
2018-05-20 08:31:33 GMT 47.426147 7.266907 22,075 271 444 1792
2018-05-20 08:31:29 GMT 47.426117 7.280203 21,950 271 444 1728
2018-05-20 08:31:25 GMT 47.426071 7.290837 21,675 271 442 1728
2018-05-20 08:31:21 GMT 47.426022 7.303514 21,700 271 443 1664
2018-05-20 08:31:18 GMT 47.426022 7.311683 21,600 271 443 1664
2018-05-20 08:31:15 GMT 47.425976 7.324289 21,550 271 443 1664
2018-05-20 08:31:11 GMT 47.425976 7.334571 21,400 270 442 1728
2018-05-20 08:31:08 GMT 47.425976 7.344501 21,250 271 441 1600
2018-05-20 08:31:04 GMT 47.425930 7.353234 21,225 272 441 1536
2018-05-20 08:31:01 GMT 47.425838 7.361896 21,150 272 440 1472
2018-05-20 08:30:57 GMT 47.425232 7.378693 21,000 277 439 1856
2018-05-20 08:30:54 GMT 47.424774 7.386177 20,650 277 439 1856
2018-05-20 08:30:50 GMT 47.423977 7.397179 20,825 277 438 1920
2018-05-20 08:30:46 GMT 47.423126 7.407875 20,725 277 438 1920
2018-05-20 08:30:43 GMT 47.422440 7.417076 20,600 277 438 1792
2018-05-20 08:30:40 GMT 47.421787 7.425420 20,550 277 438 1728
2018-05-20 08:30:36 GMT 47.420624 7.440491 20,400 277 437 1600
2018-05-20 08:30:33 GMT 47.420067 7.447885 20,325 277 436 1600
2018-05-20 08:30:30 GMT 47.419598 7.453801 20,225 277 435 1728
2018-05-20 08:30:26 GMT 47.418503 7.467682 20,050 277 435 1856
2018-05-20 08:30:22 GMT 47.417587 7.479492 19,975 277 435 2048
2018-05-20 08:30:19 GMT 47.416855 7.488591 19,925 277 435 2112
2018-05-20 08:30:15 GMT 47.415783 7.502183 19,775 277 434 2176
2018-05-20 08:30:12 GMT 47.415176 7.509507 19,675 277 433 1856
2018-05-20 08:30:09 GMT 47.414429 7.518906 19,575 277 434 1920
2018-05-20 08:30:04 GMT 47.413330 7.532707 19,425 277 433 1856
2018-05-20 08:30:01 GMT 47.412643 7.541565 19,275 277 434 1856
2018-05-20 08:29:58 GMT 47.412060 7.549157 19,200 277 433 1920
2018-05-20 08:29:55 GMT 47.411316 7.558525 19,150 277 433 1856
2018-05-20 08:29:52 GMT 47.410675 7.566422 19,025 277 432 1920
2018-05-20 08:29:49 GMT 47.409943 7.575485 18,975 277 432 1920
2018-05-20 08:29:46 GMT 47.409073 7.586609 18,725 277 429 2176
2018-05-20 08:29:43 GMT 47.408386 7.595055 18,750 277 430 2176
2018-05-20 08:29:39 GMT 47.407543 7.605779 18,575 277 429 2176
2018-05-20 08:29:36 GMT 47.406830 7.614555 18,500 277 429 2176
2018-05-20 08:29:33 GMT 47.406284 7.621202 18,350 277 429 2112
2018-05-20 08:29:30 GMT 47.405457 7.631721 18,275 277 429 2112
2018-05-20 08:29:27 GMT 47.404842 7.639864 18,100 277 428 1984
2018-05-20 08:29:24 GMT 47.404175 7.647995 18,075 277 427 1984
2018-05-20 08:29:21 GMT 47.403446 7.657259 17,925 277 427 1984
2018-05-20 08:29:18 GMT 47.402618 7.667976 17,875 277 427 1984
2018-05-20 08:29:15 GMT 47.402000 7.675218 17,775 277 426 2048
2018-05-20 08:29:12 GMT 47.401489 7.681838 17,550 277 422 2048
2018-05-20 08:29:09 GMT 47.400421 7.695078 17,550 277 425 1984
2018-05-20 08:29:06 GMT 47.400101 7.699425 17,475 277 425 1984
2018-05-20 08:29:03 GMT 47.399414 7.707802 17,325 277 424 2112
2018-05-20 08:29:00 GMT 47.398499 7.719269 17,250 277 424 2112
2018-05-20 08:28:57 GMT 47.397999 7.725854 17,100 277 423 2112
2018-05-20 08:28:53 GMT 47.397022 7.737896 16,975 277 422 2048
2018-05-20 08:28:50 GMT 47.396210 7.748520 16,900 277 422 1984
2018-05-20 08:28:47 GMT 47.395763 7.753953 16,850 277 422 1984
2018-05-20 08:28:44 GMT 47.394745 7.766785 16,675 277 420 1984
2018-05-20 08:28:41 GMT 47.394413 7.771067 16,650 277 420 1984
2018-05-20 08:28:38 GMT 47.393532 7.781842 16,500 277 419 1984
2018-05-20 08:28:35 GMT 47.392914 7.789513 16,375 277 419 1984
2018-05-20 08:28:31 GMT 47.391994 7.800575 16,275 278 411 1984
2018-05-20 08:28:28 GMT 47.391296 7.809307 16,150 277 418 2048
2018-05-20 08:28:25 GMT 47.390350 7.821167 16,050 277 416 2112
2018-05-20 08:28:22 GMT 47.389801 7.827896 15,950 277 415 2112
2018-05-20 08:28:19 GMT 47.389107 7.836351 15,825 277 414 2112
2018-05-20 08:28:16 GMT 47.388519 7.843346 15,775 277 414 2176
2018-05-20 08:28:12 GMT 47.387756 7.853182 15,550 278 411 1984
2018-05-20 08:28:09 GMT 47.386917 7.863533 15,275 277 413 2112
2018-05-20 08:28:06 GMT 47.386093 7.873352 15,400 277 413 2112
2018-05-20 08:28:02 GMT 47.385197 7.884169 15,275 277 412 2112
2018-05-20 08:27:59 GMT 47.384583 7.891411 15,150 277 411 2048
2018-05-20 08:27:56 GMT 47.383896 7.899994 15,075 278 410 1984
2018-05-20 08:27:53 GMT 47.383301 7.906654 14,925 278 409 1984
2018-05-20 08:27:50 GMT 47.382450 7.916917 14,875 278 408 1984
2018-05-20 08:27:46 GMT 47.381607 7.926842 14,625 278 406 2112
2018-05-20 08:27:43 GMT 47.380775 7.936425 14,600 278 406 2112
2018-05-20 08:27:40 GMT 47.379936 7.946355 14,475 278 405 2304
2018-05-20 08:27:37 GMT 47.379456 7.952110 14,425 278 405 2368
2018-05-20 08:27:34 GMT 47.378864 7.959172 14,325 278 404 2496
2018-05-20 08:27:31 GMT 47.378174 7.967354 14,075 278 403 2432
2018-05-20 08:27:28 GMT 47.377518 7.975018 14,075 278 403 2432
2018-05-20 08:27:25 GMT 47.376617 7.985138 13,925 278 403 2368
2018-05-20 08:27:22 GMT 47.375839 7.994339 13,800 278 402 2304
2018-05-20 08:27:19 GMT 47.375427 7.998734 13,675 278 402 2176
2018-05-20 08:27:16 GMT 47.374630 8.007906 13,600 278 401 2112
2018-05-20 08:27:13 GMT 47.373837 8.016850 13,375 278 399 1920
2018-05-20 08:27:10 GMT 47.373047 8.025513 13,400 278 399 1920
2018-05-20 08:27:07 GMT 47.372349 8.033330 13,300 278 397 1792
2018-05-20 08:27:04 GMT 47.371605 8.041358 13,225 278 396 1664
2018-05-20 08:27:01 GMT 47.370941 8.048584 13,125 278 395 1472
2018-05-20 08:26:58 GMT 47.370159 8.057415 13,025 278 393 1280
2018-05-20 08:26:55 GMT 47.369431 8.065338 12,975 278 391 1152
2018-05-20 08:26:52 GMT 47.368561 8.074539 12,950 278 388 1088
2018-05-20 08:26:49 GMT 47.368195 8.078728 12,900 278 386 1088
2018-05-20 08:26:46 GMT 47.367180 8.089952 12,800 278 383 1152
2018-05-20 08:26:43 GMT 47.366638 8.095894 12,775 278 380 1152
2018-05-20 08:26:40 GMT 47.365952 8.103859 12,725 278 379 1216
2018-05-20 08:26:37 GMT 47.365368 8.110516 12,625 278 376 1408
2018-05-20 08:26:34 GMT 47.364624 8.118896 12,525 278 374 1664
2018-05-20 08:26:31 GMT 47.363937 8.126724 12,500 278 373 1920
2018-05-20 08:26:28 GMT 47.363224 8.134531 12,350 278 370 1664
2018-05-20 08:26:25 GMT 47.362381 8.143822 12,275 278 370 1664
2018-05-20 08:26:22 GMT 47.362015 8.147804 12,200 278 369 1408
2018-05-20 08:26:19 GMT 47.361328 8.155769 12,150 278 367 1216
2018-05-20 08:26:16 GMT 47.360458 8.165108 12,075 278 364 1024
2018-05-20 08:26:13 GMT 47.359909 8.171288 12,050 251 328 1216
2018-05-20 08:26:10 GMT 47.359222 8.178547 11,975 279 357 640
2018-05-20 08:26:07 GMT 47.358536 8.185844 11,925 278 353 704
2018-05-20 08:26:04 GMT 47.357758 8.194427 11,925 278 351 640
2018-05-20 08:26:00 GMT 47.356979 8.204865 11,875 275 347 832
2018-05-20 08:25:57 GMT 47.356750 8.209534 11,825 272 343 1280
2018-05-20 08:25:54 GMT 47.356567 8.219604 11,775 254 332 1344
2018-05-20 08:25:51 GMT 47.356750 8.226288 11,650 266 338 1856
2018-05-20 08:25:48 GMT 47.356941 8.230661 11,625 265 338 1920
2018-05-20 08:25:44 GMT 47.357666 8.239746 11,475 262 336 2112
2018-05-20 08:25:41 GMT 47.358337 8.245591 11,350 256 333 1664
2018-05-20 08:25:38 GMT 47.359634 8.253822 11,300 254 332 1344
2018-05-20 08:25:35 GMT 47.360687 8.259247 11,225 252 330 1280
2018-05-20 08:25:32 GMT 47.362335 8.266457 11,175 251 328 1216
2018-05-20 08:25:29 GMT 47.363663 8.271469 11,075 247 324 1472
2018-05-20 08:25:26 GMT 47.365723 8.278816 11,025 246 323 1664
2018-05-20 08:25:23 GMT 47.367554 8.284607 10,875 245 320 2368
2018-05-20 08:25:20 GMT 47.369843 8.291725 10,800 244 319 2176
2018-05-20 08:25:17 GMT 47.371216 8.295845 10,725 243 319 2048
2018-05-20 08:25:14 GMT 47.373917 8.303535 10,575 243 317 1728
2018-05-20 08:25:11 GMT 47.375290 8.307381 10,525 242 315 1472
2018-05-20 08:25:08 GMT 47.377048 8.312354 10,475 242 315 1344
2018-05-20 08:25:05 GMT 47.379704 8.319467 10,400 241 311 1088
2018-05-20 08:25:01 GMT 47.383026 8.328049 10,300 240 306 1280
2018-05-20 08:24:58 GMT 47.384491 8.331688 10,200 240 302 1600
2018-05-20 08:24:55 GMT 47.386642 8.337250 10,175 240 302 1728
2018-05-20 08:24:52 GMT 47.388840 8.342743 10,000 240 299 2112
2018-05-20 08:24:49 GMT 47.390503 8.347004 10,000 240 297 2304
2018-05-20 08:24:46 GMT 47.392971 8.353342 9,850 240 297 2240
2018-05-20 08:24:43 GMT 47.394974 8.358398 9,775 240 297 2112
2018-05-20 08:24:40 GMT 47.397346 8.364328 9,600 240 295 1984
2018-05-20 08:24:37 GMT 47.398930 8.368342 9,575 240 295 1984
2018-05-20 08:24:34 GMT 47.401119 8.373906 9,400 240 292 1920
2018-05-20 08:24:31 GMT 47.403168 8.379066 9,375 240 291 1984
2018-05-20 08:24:28 GMT 47.405228 8.384216 9,225 240 287 2176
2018-05-20 08:24:25 GMT 47.407791 8.390671 9,150 240 288 2048
2018-05-20 08:24:22 GMT 47.409485 8.394859 8,925 240 287 2176
2018-05-20 08:24:19 GMT 47.411640 8.400316 8,875 240 285 2432
2018-05-20 08:24:16 GMT 47.413361 8.404682 8,850 240 285 2432
2018-05-20 08:24:13 GMT 47.415131 8.409048 8,625 240 285 2688
2018-05-20 08:24:10 GMT 47.417133 8.414048 8,500 240 285 2752
2018-05-20 08:24:07 GMT 47.419415 8.419894 8,300 240 285 2880
2018-05-20 08:24:04 GMT 47.421616 8.425415 8,200 240 285 2880
2018-05-20 08:24:01 GMT 47.423904 8.431183 8,125 240 285 2880
2018-05-20 08:23:56 GMT 47.426769 8.438556 7,850 240 285 2752
2018-05-20 08:23:53 GMT 47.428436 8.442787 7,775 240 285 2816
2018-05-20 08:23:50 GMT 47.430634 8.448349 7,600 240 285 2688
2018-05-20 08:23:47 GMT 47.432648 8.453362 7,450 240 285 2688
2018-05-20 08:23:43 GMT 47.435257 8.459885 7,100 240 284 2368
2018-05-20 08:23:40 GMT 47.437290 8.465107 7,150 240 283 2240
2018-05-20 08:23:37 GMT 47.439663 8.470952 7,100 240 282 2240
2018-05-20 08:23:34 GMT 47.441803 8.476227 6,950 239 281 2496
2018-05-20 08:23:31 GMT 47.443588 8.480621 6,875 239 280 2304
2018-05-20 08:23:28 GMT 47.445530 8.485389 6,725 239 278 1920
2018-05-20 08:23:25 GMT 47.447571 8.490234 6,675 239 277 1600
2018-05-20 08:23:22 GMT 47.449219 8.494286 6,550 239 274 1344
2018-05-20 08:23:19 GMT 47.451691 8.500259 6,450 239 273 1600
2018-05-20 08:23:15 GMT 47.454208 8.506233 6,400 239 269 1792
2018-05-20 08:23:12 GMT 47.455856 8.510147 6,275 238 267 2112
2018-05-20 08:23:09 GMT 47.457733 8.514473 6,250 238 266 2112
2018-05-20 08:23:06 GMT 47.460052 8.519827 6,100 238 264 1600
2018-05-20 08:23:03 GMT 47.462585 8.525734 6,025 238 261 1536
2018-05-20 08:23:00 GMT 47.463963 8.528912 5,950 239 260 1280
2018-05-20 08:22:57 GMT 47.465919 8.533560 5,900 239 258 1280
2018-05-20 08:22:54 GMT 47.467346 8.537064 5,875 240 256 960
2018-05-20 08:22:50 GMT 47.470001 8.543793 5,800 242 249 640
2018-05-20 08:22:47 GMT 47.471737 8.548561 5,775 244 246 704
2018-05-20 08:22:44 GMT 47.472946 8.552363 5,725 247 244 1216
2018-05-20 08:22:41 GMT 47.474670 8.559036 5,600 257 240 1728
2018-05-20 08:22:37 GMT 47.475586 8.564117 5,525 260 238 1792
2018-05-20 08:22:34 GMT 47.476135 8.568924 5,450 263 238 2240
2018-05-20 08:22:31 GMT 47.476440 8.573280 5,300 271 239 1856
2018-05-20 08:22:28 GMT 47.476501 8.578262 5,250 273 238 1728
2018-05-20 08:22:25 GMT 47.476158 8.584125 5,125 280 236 1664
2018-05-20 08:22:21 GMT 47.475510 8.589478 5,025 289 234 1536
2018-05-20 08:22:18 GMT 47.474205 8.595393 4,975 293 233 1152
2018-05-20 08:22:14 GMT 47.472656 8.600235 4,875 305 228 1472
2018-05-20 08:22:10 GMT 47.469875 8.606098 4,775 313 225 1984
2018-05-20 08:22:07 GMT 47.468105 8.608915 4,700 318 225 1920
2018-05-20 08:22:04 GMT 47.465733 8.612084 4,600 328 224 2112
2018-05-20 08:22:00 GMT 47.463264 8.614690 4,500 330 223 2048
2018-05-20 08:21:57 GMT 47.460613 8.616943 4,400 336 222 2176
2018-05-20 08:21:54 GMT 47.456909 8.619186 4,250 345 222 1856
2018-05-20 08:21:51 GMT 47.454529 8.620079 4,150 352 220 1664
2018-05-20 08:21:48 GMT 47.450417 8.620958 4,075 359 218 1344
2018-05-20 08:21:44 GMT 47.447296 8.620887 4,025 3 216 1216
2018-05-20 08:21:41 GMT 47.444458 8.620285 3,925 13 211 1408
2018-05-20 08:21:38 GMT 47.441071 8.618980 3,675 25 208 1792
2018-05-20 08:21:35 GMT 47.438267 8.617295 3,775 27 207 1856
2018-05-20 08:21:32 GMT 47.436729 8.616098 3,600 37 205 1408
2018-05-20 08:21:29 GMT 47.434170 8.613422 3,650 40 205 1344
2018-05-20 08:21:26 GMT 47.431732 8.610191 3,500 56 199 896
2018-05-20 08:21:23 GMT 47.429562 8.606027 3,500 56 199 896
2018-05-20 08:21:20 GMT 47.428722 8.603985 3,475 64 195 704
2018-05-20 08:21:17 GMT 47.427326 8.599619 3,425 71 192 1088
2018-05-20 08:21:14 GMT 47.426537 8.595675 3,325 83 189 1472
2018-05-20 08:21:11 GMT 47.426147 8.592339 3,300 86 188 1728
2018-05-20 08:21:07 GMT 47.426071 8.587224 3,175 92 187 2176
2018-05-20 08:21:04 GMT 47.426285 8.583755 3,025 105 191 2304
2018-05-20 08:21:01 GMT 47.427002 8.579548 2,950 111 191 2176
2018-05-20 08:20:57 GMT 47.428528 8.574417 2,750 123 190 2624
2018-05-20 08:20:54 GMT 47.429703 8.571730 2,675 126 190 2560
2018-05-20 08:20:50 GMT 47.431747 8.568139 2,500 136 190 3008
2018-05-20 08:20:46 GMT 47.435146 8.564054 2,250 148 192 2688
2018-05-20 08:20:42 GMT 47.438358 8.561378 2,075 155 191 3072
2018-05-20 08:20:38 GMT 47.441025 8.559654 1,900 155 192 3840
2018-05-20 08:20:35 GMT 47.443222 8.558144 1,650 155 197 3392
2018-05-20 08:20:30 GMT 47.447392 8.555392 1,450 155 200 3136
2018-05-20 08:20:27 GMT 47.449814 8.553702 1,300 154 199
2018-05-20 08:20:19 GMT 47.456383 8.549252 0 154 199
2018-05-20 08:20:16 GMT 47.458515 8.547803 0 154 199
2018-05-20 08:20:10 GMT 47.463009 8.544687 0 154 160
2018-05-20 08:20:05 GMT 47.465939 8.542694 0 154 140
2018-05-20 08:19:55 GMT 47.470852 8.539300 0 154 96
2018-05-20 08:19:46 GMT 47.473560 8.537424 0 154 54
2018-05-20 08:18:41 GMT 47.475117 8.536377 0 2 0
2018-05-20 08:18:14 GMT 47.475113 8.536377 0 2 0
2018-05-20 08:18:03 GMT 47.475243 8.536257 0 2 6
2018-05-20 08:17:52 GMT 47.475597 8.536222 0 208 11
2018-05-20 08:17:42 GMT 47.475903 8.536852 0 247 14
2018-05-20 08:17:32 GMT 47.476101 8.537664 0 267 13
2018-05-20 08:17:22 GMT 47.475975 8.538471 0 306 13
2018-05-20 08:17:12 GMT 47.475544 8.539000 0 334 13
2018-05-20 08:17:01 GMT 47.474968 8.539398 0 334 15
2018-05-20 08:16:55 GMT 47.474556 8.539673 0 334 16
2018-05-20 08:16:51 GMT 47.474335 8.539828 0 334 16
2018-05-20 08:16:41 GMT 47.473698 8.540274 0 334 17
2018-05-20 08:16:31 GMT 47.473045 8.540720 0 334 17
2018-05-20 08:16:24 GMT 47.472633 8.540995 0 334 16
2018-05-20 08:16:20 GMT 47.472389 8.541166 0 334 16
2018-05-20 08:16:06 GMT 47.471539 8.541764 0 334 15
2018-05-20 08:15:59 GMT 47.471107 8.542046 0 334 14
2018-05-20 08:15:49 GMT 47.470482 8.542486 0 334 20
2018-05-20 08:15:43 GMT 47.469994 8.542821 0 334 22
2018-05-20 08:15:40 GMT 47.469666 8.543050 0 334 22
2018-05-20 08:15:28 GMT 47.468616 8.543776 0 334 24
2018-05-20 08:15:22 GMT 47.467991 8.544159 0 340 23
2018-05-20 08:15:19 GMT 47.467781 8.544273 0 340 22
2018-05-20 08:15:13 GMT 47.467300 8.544548 0 337 21
2018-05-20 08:15:08 GMT 47.466888 8.544823 0 334 20
2018-05-20 08:14:59 GMT 47.466122 8.545338 0 334 19
2018-05-20 08:14:51 GMT 47.465572 8.545715 0 334 18
2018-05-20 08:14:48 GMT 47.465382 8.545849 0 334 18
2018-05-20 08:14:44 GMT 47.465023 8.546093 0 334 18
2018-05-20 08:14:37 GMT 47.464626 8.546360 0 334 19
2018-05-20 08:14:33 GMT 47.464302 8.546591 0 334 19
2018-05-20 08:14:28 GMT 47.463890 8.546865 0 334 19
2018-05-20 08:14:23 GMT 47.463535 8.547157 0 329 18
2018-05-20 08:14:17 GMT 47.463238 8.547501 0 309 18
2018-05-20 08:14:11 GMT 47.463055 8.547997 0 284 16
2018-05-20 08:14:01 GMT 47.462975 8.549166 0 275 17
2018-05-20 08:13:58 GMT 47.462963 8.549372 0 275 17
2018-05-20 08:13:55 GMT 47.462929 8.549801 0 275 17
2018-05-20 08:13:50 GMT 47.462917 8.550161 0 275 16
2018-05-20 08:13:45 GMT 47.462879 8.550708 0 275 16
2018-05-20 08:13:41 GMT 47.462845 8.551201 0 275 15
2018-05-20 08:13:35 GMT 47.462803 8.551689 0 275 15
2018-05-20 08:13:30 GMT 47.462776 8.552170 0 275 15
2018-05-20 08:13:25 GMT 47.462742 8.552592 0 275 15
2018-05-20 08:13:20 GMT 47.462708 8.553138 0 275 14
2018-05-20 08:13:16 GMT 47.462685 8.553437 0 275 14
2018-05-20 08:13:08 GMT 47.462639 8.554036 0 275 12
2018-05-20 08:13:05 GMT 47.462631 8.554247 0 275 11
2018-05-20 08:12:59 GMT 47.462597 8.554728 0 275 9
2018-05-20 08:12:55 GMT 47.462585 8.554899 0 275 8
2018-05-20 08:12:47 GMT 47.462555 8.555198 0 2 6
2018-05-20 08:12:44 GMT 47.462543 8.555304 0 2 4
2018-05-20 08:12:34 GMT 47.462540 8.555431 0 2 0
2018-05-20 08:12:04 GMT 47.462543 8.555427 0 2 0
2018-05-20 08:11:54 GMT 47.462540 8.555431 0 2 0
2018-05-20 08:11:39 GMT 47.462543 8.555427 0 2 0
2018-05-20 08:11:29 GMT 47.462540 8.555431 0 2 0
2018-05-20 08:11:09 GMT 47.462543 8.555427 0 2 0
2018-05-20 08:10:49 GMT 47.462540 8.555431 0 2 0
2018-05-20 08:10:44 GMT 47.462543 8.555427 0 2 0
2018-05-20 08:10:40 GMT 47.462540 8.555431 0 2 0
2018-05-20 08:10:29 GMT 47.462543 8.555427 0 2 0
2018-05-20 08:10:19 GMT 47.462540 8.555431 0 2 0
2018-05-20 08:10:00 GMT 47.462543 8.555427 0 2 0
2018-05-20 08:09:29 GMT 47.462540 8.555431 0 2 0
2018-05-20 08:09:18 GMT 47.462543 8.555427 0 2 0
2018-05-20 08:09:09 GMT 47.462540 8.555431 0 2 0
2018-05-20 08:09:06 GMT 47.462543 8.555409 0 2 2
2018-05-20 08:08:59 GMT 47.462551 8.555363 0 2 2
2018-05-20 08:08:55 GMT 47.462532 8.555321 0 2 3
2018-05-20 08:08:48 GMT 47.462521 8.555216 0 2 3
2018-05-20 08:08:44 GMT 47.462498 8.555145 0 2 3
2018-05-20 08:08:36 GMT 47.462463 8.555040 0 2 3
2018-05-20 08:08:28 GMT 47.462402 8.554985 0 2 3
2018-05-20 08:08:24 GMT 47.462368 8.554969 0 2 3
2018-05-20 08:08:18 GMT 47.462288 8.554934 0 2 4
2018-05-20 08:08:15 GMT 47.462231 8.554934 0 2 4
2018-05-20 08:08:08 GMT 47.462139 8.554951 0 2 5
2018-05-20 08:08:04 GMT 47.462067 8.554952 0 2 4
2018-05-20 08:07:58 GMT 47.461971 8.554952 0 2 4
2018-05-20 08:07:52 GMT 47.461891 8.554934 0 2 4
2018-05-20 08:07:43 GMT 47.461777 8.554916 0 2 3
2018-05-20 08:07:24 GMT 47.461658 8.554899 0 2 0
2018-05-20 08:07:20 GMT 47.461658 8.554899 0 2 0
2018-05-20 08:06:29 GMT 47.461658 8.554899 0 2 0
2018-05-20 08:06:15 GMT 47.461658 8.554916 0 2 0
2018-05-20 08:05:54 GMT 47.461658 8.554916 0 2 0

Making use of Plane Finder data

You are free to use the raw flight data, aircraft information and images provided in this report for your own purposes provided the data is correctly attributed to Plane Finder. We ask that you please credit Plane Finder and link to planefinder.net in close proximity to the content.

Optionally one of the following logos (no smaller then 150x24px) can be used and must link to planefinder.net

Embedding the Plane Finder map

You are welcome to embed the Plane Finder playback map on your website to offer visitors a more interactive experience. We suggest using the following HTML code:

<iframe src="//planefinder.net/data/report/UA135-N78060-7700-squawk-2018-05-20/map" width="800" height="600" seamless="seamless"></iframe>

Where our data comes from

Plane Finder has a global network of data feeds and antenna radars that receive data broadcast directly from aircraft. The primary technologies used are ADS-B and MLAT. We also show feeds from the FAA and a FLARM glider feed.

Click here to find out more about the Plane Finder network.

How we collect our data